Flight Track Log - Related Links

Times and Time Zones

All times are in EDT time to prevent confusion due to time zone crossing. See the DAL268 flight status page for this flight to view local times or setup timezone preferences in your user account.

Time Position Orientation Groundspeed Altitude Reporting Facility
EDT Latitude Longitude Course Direction KTS MPH feet Rate Location/Type
Sun 11:52:33 PM 40.6370 -73.7800 North  Level FlightAware ADS-B
Mon 12:05:00 AM 40.9230 -73.5103 37° Northeast  Level FlightAware Approximate
Mon 12:06:00 AM 41.0359 -73.4129 30° Northeast  Level FlightAware Approximate
Mon 12:07:00 AM 41.1587 -73.3247 37° Northeast  Level FlightAware Approximate
Mon 12:13:47 AM 40.6360 -73.7750 214° Southwest 145 167  Level FlightAware ADS-B
Mon 12:14:07 AM 40.6220 -73.7860 211° Southwest 176 203 500 1,833 Climbing FlightAware ADS-B
Mon 12:14:23 AM 40.6090 -73.7960 210° Southwest 175 201 1,100 1,875 Climbing FlightAware ADS-B
Mon 12:14:39 AM 40.6000 -73.8030 211° Southwest 178 205 1,500 1,135 Climbing FlightAware ADS-B
Mon 12:15:00 AM 40.5840 -73.8120 203° Southwest 197 227 1,800 800 Climbing FlightAware ADS-B
Mon 12:15:09 AM 40.5750 -73.8120 180° South 214 246 1,900 900 Climbing FlightAware ADS-B
Mon 12:15:20 AM 40.5640 -73.8090 168° South 224 258 2,100 1,412 Climbing FlightAware ADS-B
Mon 12:15:26 AM 40.5540 -73.8020 152° Southeast 233 268 2,300 1,000 Climbing FlightAware ADS-B
Mon 12:15:32 AM 40.5490 -73.7960 138° Southeast 244 281 2,300 667 Level FlightAware ADS-B
Mon 12:15:44 AM 40.5400 -73.7780 123° Southeast 262 302 2,500 1,421 Climbing FlightAware ADS-B
Mon 12:16:10 AM 40.5250 -73.7380 116° Southeast 277 319 3,200 2,000 Climbing FlightAware ADS-B
Mon 12:16:35 AM 40.5100 -73.6880 112° Southeast 294 338 4,200 2,357 Climbing FlightAware ADS-B
Mon 12:16:38 AM 40.5090 -73.6790 98° East 300 345 4,300 1,034 Climbing FlightAware ADS-B
Mon 12:17:04 AM 40.5120 -73.6550 81° East 310 357 4,700 1,135 Climbing FlightAware ADS-B
Mon 12:17:15 AM 40.5180 -73.6380 65° Northeast 308 354 5,000 1,579 Climbing FlightAware ADS-B
Mon 12:17:23 AM 40.5270 -73.6230 52° Northeast 315 362 5,200 1,667 Climbing FlightAware ADS-B
Mon 12:17:33 AM 40.5400 -73.6120 33° Northeast 320 368 5,500 3,375 Climbing FlightAware ADS-B
Mon 12:17:39 AM 40.5530 -73.6040 25° Northeast 315 362 6,100 5,000 Climbing FlightAware ADS-B
Mon 12:17:45 AM 40.5680 -73.6010 North 312 359 6,500 2,571 Climbing FlightAware ADS-B
Mon 12:18:14 AM 40.6110 -73.6080 353° North 321 369 7,600 2,182 Climbing FlightAware ADS-B
Mon 12:18:40 AM 40.6530 -73.6010 North 328 377 8,500 1,909 Climbing FlightAware ADS-B
Mon 12:18:58 AM 40.6700 -73.5910 24° Northeast 326 375 9,000 2,200 Climbing FlightAware ADS-B
Mon 12:19:10 AM 40.6860 -73.5790 30° Northeast 322 371 9,600 1,811 Climbing FlightAware ADS-B
Mon 12:19:51 AM 40.7400 -73.5440 26° Northeast 341 392 10,600 1,325 Climbing FlightAware ADS-B
Mon 12:20:27 AM 40.7930 -73.5120 25° Northeast 366 421 11,300 1,083 Climbing FlightAware ADS-B
Mon 12:21:03 AM 40.8460 -73.4800 25° Northeast 390 449 11,900 1,268 Climbing FlightAware ADS-B
Mon 12:21:38 AM 40.9030 -73.4430 26° Northeast 408 470 12,800 1,742 Climbing FlightAware ADS-B
Mon 12:22:05 AM 40.9380 -73.4070 38° Northeast 415 478 13,700 2,143 Climbing FlightAware ADS-B
Mon 12:22:48 AM 41.0010 -73.3160 47° Northeast 429 494 15,300 2,080 Climbing FlightAware ADS-B
Mon 12:23:20 AM 41.0400 -73.2570 49° Northeast 437 503 16,300 1,881 Climbing FlightAware ADS-B
Mon 12:23:55 AM 41.0900 -73.1800 49° Northeast 447 514 17,400 1,833 Climbing FlightAware ADS-B
Mon 12:24:32 AM 41.1400 -73.1070 48° Northeast 457 526 18,500 1,683 Climbing FlightAware ADS-B
Mon 12:25:17 AM 41.2020 -73.0120 49° Northeast 469 540 19,700 1,671 Climbing FlightAware ADS-B
Mon 12:25:51 AM 41.2510 -72.9380 49° Northeast 475 547 20,700 1,726 Climbing FlightAware ADS-B
Mon 12:26:30 AM 41.3090 -72.8490 49° Northeast 481 554 21,800 1,652 Climbing FlightAware ADS-B
Mon 12:27:00 AM 41.3540 -72.7800 49° Northeast 487 560 22,600 1,676 Climbing FlightAware ADS-B
Mon 12:27:38 AM 41.4190 -72.6820 48° Northeast 494 568 23,700 1,091 Climbing FlightAware ADS-B
Mon 12:28:28 AM 41.4810 -72.5860 49° Northeast 498 573 24,200 848 Climbing FlightAware ADS-B
Mon 12:29:10 AM 41.5460 -72.4860 49° Northeast 509 586 25,000 1,443 Climbing FlightAware ADS-B
Mon 12:29:47 AM 41.6100 -72.3860 49° Northeast 524 603 26,100 1,407 Climbing FlightAware ADS-B
Mon 12:30:31 AM 41.6790 -72.2770 50° Northeast 532 612 26,900 1,084 Climbing FlightAware ADS-B
Mon 12:31:10 AM 41.7410 -72.1820 49° Northeast 537 618 27,600 759 Climbing FlightAware ADS-B
Mon 12:31:58 AM 41.8150 -72.0660 49° Northeast 539 620 28,000 1,342 Climbing FlightAware ADS-B
Mon 12:32:26 AM 41.8640 -71.9890 49° Northeast 537 618 29,300 2,066 Climbing FlightAware ADS-B
Mon 12:32:59 AM 41.9190 -71.9070 48° Northeast 534 615 30,100 1,268 Climbing FlightAware ADS-B
Mon 12:33:37 AM 41.9730 -71.8340 45° Northeast 532 612 30,800 1,111 Climbing FlightAware ADS-B
Mon 12:34:20 AM 42.0560 -71.7270 44° Northeast 533 613 31,600 1,121 Climbing FlightAware ADS-B
Mon 12:35:08 AM 42.1480 -71.6110 43° Northeast 531 611 32,500 1,012 Climbing FlightAware ADS-B
Mon 12:35:43 AM 42.2030 -71.5410 43° Northeast 531 611 33,000 316 Climbing FlightAware ADS-B
Mon 12:36:43 AM 42.3060 -71.4100 43° Northeast 535 616 33,000  Level FlightAware ADS-B
Mon 12:37:28 AM 42.3990 -71.2860 45° Northeast 536 617 33,000  Level FlightAware ADS-B
Mon 12:38:15 AM 42.4720 -71.1950 43° Northeast 536 617 33,000  Level FlightAware ADS-B
Mon 12:38:54 AM 42.5480 -71.0930 45° Northeast 538 619 33,000  Level FlightAware ADS-B
Mon 12:39:45 AM 42.6380 -70.9790 43° Northeast 536 617 33,000  Level FlightAware ADS-B
Mon 12:40:15 AM 42.6860 -70.9130 45° Northeast 533 613 33,000  Level FlightAware ADS-B
Mon 12:40:53 AM 42.7430 -70.8380 44° Northeast 533 613 33,000  Level FlightAware ADS-B
Mon 12:41:46 AM 42.8660 -70.7240 34° Northeast 514 592 33,000  Level FlightAware ADS-B
Mon 12:42:18 AM 42.9400 -70.6660 30° Northeast 515 593 33,000  Level FlightAware ADS-B
Mon 12:42:58 AM 43.0110 -70.6140 28° Northeast 515 593 33,000  Level FlightAware ADS-B
Mon 12:43:36 AM 43.0790 -70.5650 28° Northeast 515 593 33,000  Level FlightAware ADS-B
Mon 12:44:12 AM 43.1430 -70.5180 28° Northeast 515 593 33,000 80 Level FlightAware ADS-B
Mon 12:44:51 AM 43.2500 -70.4450 26° Northeast 508 585 33,100  Climbing FlightAware ADS-B
Mon 12:45:24 AM 43.3160 -70.3990 27° Northeast 509 586 33,000 -82 Descending FlightAware ADS-B
Mon 12:46:04 AM 43.3870 -70.3490 27° Northeast 509 586 33,000  Level FlightAware ADS-B
Mon 12:46:52 AM 43.4730 -70.2890 27° Northeast 509 586 33,000  Level FlightAware ADS-B
Mon 12:47:33 AM 43.5460 -70.2370 27° Northeast 509 586 33,000  Level FlightAware ADS-B
Mon 12:48:14 AM 43.6190 -70.1860 27° Northeast 509 586 33,000  Level FlightAware ADS-B
Mon 12:48:55 AM 43.6920 -70.1340 27° Northeast 509 586 33,000  Level FlightAware ADS-B
Mon 12:49:32 AM 43.7580 -70.0880 27° Northeast 509 586 33,000  Level FlightAware ADS-B
Mon 12:50:06 AM 43.9210 -70.0060 20° North 518 596 33,000 71 Level FlightAware ADS-B
Mon 12:50:56 AM 44.0360 -69.9380 23° Northeast 525 604 33,100  Climbing FlightAware ADS-B
Mon 12:51:45 AM 44.1290 -69.8710 27° Northeast 528 608 33,000 -72 Descending FlightAware ADS-B
Mon 12:52:19 AM 44.2010 -69.7540 49° Northeast 532 612 33,000  Level FlightAware ADS-B
Mon 12:52:58 AM 44.2580 -69.6720 46° Northeast 532 612 33,000  Level FlightAware ADS-B
Mon 12:53:32 AM 44.3070 -69.6010 46° Northeast 532 612 33,000 85 Level FlightAware ADS-B
Mon 12:54:09 AM 44.3730 -69.5110 44° Northeast 531 611 33,100  Climbing FlightAware ADS-B
Mon 12:54:41 AM 44.4430 -69.4070 47° Northeast 530 610 33,000 -67 Descending FlightAware ADS-B
Mon 12:55:39 AM 44.5220 -69.2790 49° Northeast 530 610 33,000  Level FlightAware ADS-B
Mon 12:56:21 AM 44.5800 -69.1870 48° Northeast 530 610 33,000  Level FlightAware ADS-B
Mon 12:56:57 AM 44.6290 -69.1070 49° Northeast 530 610 33,000  Level FlightAware ADS-B
Mon 12:57:49 AM 44.7000 -68.9920 49° Northeast 530 610 33,000  Level FlightAware ADS-B
Mon 12:58:27 AM 44.7520 -68.9080 49° Northeast 530 610 33,000  Level FlightAware ADS-B
Mon 12:59:14 AM 44.8620 -68.7440 47° Northeast 526 605 33,000  Level FlightAware ADS-B
Mon 12:59:54 AM 44.9180 -68.6590 47° Northeast 526 605 33,000  Level FlightAware ADS-B
Mon 01:00:33 AM 44.9730 -68.5750 47° Northeast 526 605 33,000  Level FlightAware ADS-B
Mon 01:01:28 AM 45.0470 -68.4590 48° Northeast 526 605 33,000  Level FlightAware ADS-B
Mon 01:02:18 AM 45.1690 -68.2650 48° Northeast 525 604 33,000  Level FlightAware ADS-B
Mon 01:02:56 AM 45.2010 -68.2150 48° Northeast 525 604 33,000  Level FlightAware ADS-B
Mon 01:03:29 AM 45.2630 -68.1160 48° Northeast 526 605 33,000  Level FlightAware ADS-B
Mon 01:04:21 AM 45.3720 -67.9430 48° Northeast 526 605 33,000  Level FlightAware ADS-B
Mon 01:05:08 AM 45.4370 -67.8400 48° Northeast 526 605 33,000  Level FlightAware ADS-B
Mon 01:05:44 AM 45.4870 -67.7610 48° Northeast 526 605 33,000  Level FlightAware ADS-B
Mon 01:06:17 AM 45.5330 -67.6880 48° Northeast 526 605 33,000  Level FlightAware ADS-B
Mon 01:06:54 AM 45.5840 -67.6070 48° Northeast 526 605 33,000  Level FlightAware ADS-B
Mon 01:07:34 AM 45.6390 -67.5190 48° Northeast 526 605 33,000  Level FlightAware ADS-B
Mon 01:08:22 AM 45.7060 -67.4140 48° Northeast 526 605 33,000  Level FlightAware ADS-B
Mon 01:09:06 AM 45.7670 -67.3170 48° Northeast 526 605 33,000  Level FlightAware ADS-B
Mon 01:09:38 AM 45.8110 -67.2460 48° Northeast 526 605 33,000  Level FlightAware ADS-B
Mon 01:10:14 AM 45.8610 -67.1670 48° Northeast 526 605 33,000  Level FlightAware ADS-B
Mon 01:10:53 AM 45.9150 -67.0800 48° Northeast 526 605 33,000  Level FlightAware ADS-B
Mon 01:11:31 AM 45.9670 -66.9960 48° Northeast 526 605 33,000  Level FlightAware ADS-B
Mon 01:12:07 AM 46.0170 -66.9170 48° Northeast 526 605 33,000  Level FlightAware ADS-B
Mon 01:12:52 AM 46.0790 -66.8170 48° Northeast 526 605 33,000  Level FlightAware ADS-B
Mon 01:14:15 AM 46.3333 -66.3333 48° Northeast 520 598 33,000  Level Moncton Center
Mon 01:15:15 AM 46.4333 -66.1667 49° Northeast 520 598 33,000  Level Moncton Center
Mon 01:16:15 AM 46.5167 -66.0000 54° Northeast 520 598 33,000  Level Moncton Center
Mon 01:17:15 AM 46.6167 -65.8333 49° Northeast 520 598 33,000  Level Moncton Center
Mon 01:18:15 AM 46.7000 -65.6833 51° Northeast 520 598 33,000  Level Moncton Center
Mon 01:19:15 AM 46.8000 -65.5167 49° Northeast 520 598 33,000  Level Moncton Center
Mon 01:20:15 AM 46.9000 -65.3500 49° Northeast 520 598 33,000  Level Moncton Center
Mon 01:21:15 AM 47.0000 -65.2000 46° Northeast 520 598 33,000  Level Moncton Center
Mon 01:22:15 AM 47.0833 -65.0333 54° Northeast 520 598 33,000  Level Moncton Center
Mon 01:23:15 AM 47.1833 -64.8667 49° Northeast 520 598 33,000  Level Moncton Center
Mon 01:24:15 AM 47.2833 -64.7000 48° Northeast 520 598 33,000  Level Moncton Center
Mon 01:25:15 AM 47.3667 -64.5500 51° Northeast 520 598 33,000  Level Moncton Center
Mon 01:26:15 AM 47.4667 -64.3667 51° Northeast 520 598 33,000  Level Moncton Center
Mon 01:27:15 AM 47.5500 -64.2000 53° Northeast 520 598 33,000  Level Moncton Center
Mon 01:28:15 AM 47.6333 -64.0500 50° Northeast 520 598 33,000  Level Moncton Center
Mon 01:29:15 AM 47.7333 -63.8667 51° Northeast 520 598 33,000  Level Moncton Center
Mon 01:30:15 AM 47.8167 -63.7000 53° Northeast 520 598 33,000  Level Moncton Center
Mon 01:31:15 AM 47.9167 -63.5167 51° Northeast 520 598 33,000  Level Moncton Center
Mon 01:32:15 AM 48.0000 -63.3500 53° Northeast 520 598 33,000  Level Moncton Center
Mon 01:33:15 AM 48.1000 -63.1667 51° Northeast 520 598 33,000  Level Moncton Center
Mon 01:34:15 AM 48.1833 -63.0167 50° Northeast 530 610 33,000  Level Moncton Center
Mon 01:35:16 AM 48.2667 -62.8333 56° Northeast 530 610 33,000  Level Gander Center
Mon 01:36:16 AM 48.3667 -62.6667 48° Northeast 530 610 33,000  Level Gander Center
Mon 01:37:16 AM 48.4667 -62.4833 51° Northeast 530 610 33,000  Level Gander Center
Mon 01:38:16 AM 48.5500 -62.3000 55° Northeast 530 610 33,000  Level Gander Center
Mon 01:39:16 AM 48.6333 -62.1500 50° Northeast 530 610 33,000  Level Gander Center
Mon 01:40:16 AM 48.7333 -61.9333 55° Northeast 540 621 33,000  Level Gander Center
Mon 01:41:16 AM 48.8167 -61.7667 53° Northeast 530 610 33,000  Level Gander Center
Mon 01:42:16 AM 48.9000 -61.5833 55° Northeast 530 610 33,000  Level Gander Center
Mon 01:43:16 AM 49.0000 -61.4167 48° Northeast 540 621 33,000  Level Gander Center
Mon 01:44:16 AM 49.0833 -61.2333 55° Northeast 540 621 33,000  Level Gander Center
Mon 01:45:16 AM 49.1833 -61.0333 53° Northeast 540 621 33,000 50 Level Gander Center
Mon 01:46:16 AM 49.2667 -60.8667 52° Northeast 540 621 33,100 500 Climbing Gander Center
Mon 01:47:16 AM 49.3500 -60.6667 57° Northeast 530 610 34,000 450 Climbing Gander Center
Mon 01:48:16 AM 49.4333 -60.4833 55° Northeast 540 621 34,000  Level Gander Center
Mon 01:49:16 AM 49.5333 -60.3000 50° Northeast 540 621 34,000  Level Gander Center
Mon 01:50:16 AM 49.6167 -60.1167 55° Northeast 540 621 34,000  Level Gander Center
Mon 01:51:16 AM 49.7000 -59.9333 55° Northeast 540 621 34,000  Level Gander Center
Mon 01:52:16 AM 49.7833 -59.7333 57° Northeast 540 621 34,000  Level Gander Center
Mon 01:53:16 AM 49.8667 -59.5500 55° Northeast 540 621 34,000  Level Gander Center
Mon 01:54:16 AM 49.9667 -59.3667 50° Northeast 540 621 34,000  Level Gander Center
Mon 01:55:16 AM 50.0500 -59.1667 57° Northeast 540 621 34,000  Level Gander Center
Mon 01:56:16 AM 50.1333 -58.9833 55° Northeast 540 621 34,000  Level Gander Center
Mon 01:57:16 AM 50.2333 -58.7667 54° Northeast 540 621 34,000  Level Gander Center
Mon 01:58:16 AM 50.3000 -58.5833 60° Northeast 540 621 34,000  Level Gander Center
Mon 01:59:16 AM 50.3833 -58.3667 59° Northeast 540 621 34,000  Level Gander Center
Mon 02:00:16 AM 50.4667 -58.1833 54° Northeast 540 621 34,000  Level Gander Center
Mon 02:01:16 AM 50.5333 -57.9667 64° Northeast 540 621 34,000  Level Gander Center
Mon 02:02:16 AM 50.6167 -57.7833 54° Northeast 530 610 34,000  Level Gander Center
Mon 02:03:16 AM 50.7000 -57.5833 57° Northeast 530 610 34,000  Level Gander Center
Mon 02:04:16 AM 50.7667 -57.4000 60° Northeast 530 610 34,000  Level Gander Center
Mon 02:05:16 AM 50.8500 -57.1833 59° Northeast 540 621 34,000  Level Gander Center
Mon 02:06:16 AM 50.9333 -56.9833 56° Northeast 540 621 34,000  Level Gander Center
Mon 02:07:16 AM 51.0000 -56.7667 64° Northeast 540 621 34,000  Level Gander Center
Mon 02:08:16 AM 51.0833 -56.5667 56° Northeast 540 621 34,000  Level Gander Center
Mon 02:09:16 AM 51.1500 -56.3500 64° Northeast 540 621 34,000  Level Gander Center
Mon 02:10:16 AM 51.2333 -56.1500 56° Northeast 540 621 34,000  Level Gander Center
Mon 02:11:16 AM 51.3167 -55.9333 58° Northeast 550 633 34,000  Level Gander Center
Mon 02:12:16 AM 51.3833 -55.7333 62° Northeast 540 621 34,000  Level Gander Center
Mon 02:13:16 AM 51.4500 -55.5333 62° Northeast 540 621 34,000  Level Gander Center
Mon 02:14:16 AM 51.5333 -55.3167 58° Northeast 530 610 34,000  Level Gander Center
Mon 02:15:16 AM 51.6000 -55.1167 62° Northeast 530 610 34,000  Level Gander Center
Mon 02:16:16 AM 51.6833 -54.8833 60° Northeast 540 621 34,000  Level Gander Center
Mon 02:17:16 AM 51.7500 -54.6833 62° Northeast 530 610 34,000  Level Gander Center
Mon 02:18:16 AM 51.8333 -54.4833 56° Northeast 530 610 34,000  Level Gander Center
Mon 02:19:16 AM 51.9000 -54.2500 65° Northeast 540 621 34,000  Level Gander Center
Mon 02:20:16 AM 51.9500 -54.0833 64° Northeast 530 610 34,000  Level Gander Center
Mon 02:21:16 AM 52.0500 -53.8500 55° Northeast 530 610 34,000  Level Gander Center
Mon 02:22:16 AM 52.1000 -53.6500 68° East 540 621 34,000  Level Gander Center
Mon 02:23:16 AM 52.1833 -53.4167 60° Northeast 530 610 34,000  Level Gander Center
Mon 02:24:16 AM 52.2333 -53.2167 68° East 530 610 34,000  Level Gander Center
Mon 02:25:16 AM 52.3000 -52.9500 68° East 550 633 34,000  Level Gander Center
Mon 02:26:16 AM 52.3500 -52.7500 68° East 540 621 34,000  Level Gander Center
Mon 02:27:16 AM 52.4000 -52.5167 71° East 540 621 34,000  Level Gander Center
Mon 02:28:16 AM 52.4500 -52.3000 69° East 550 633 34,000  Level Gander Center
Mon 02:29:16 AM 52.5167 -52.0667 65° Northeast 550 633 34,000  Level Gander Center
Mon 02:30:16 AM 52.5667 -51.8333 70° East 550 633 34,000  Level Gander Center
Mon 02:31:16 AM 52.6167 -51.5667 73° East 550 633 34,000  Level Gander Center
Mon 02:32:16 AM 52.6833 -51.3333 65° Northeast 550 633 34,000  Level Gander Center
Mon 02:34:00 AM 52.7634 -51.0038 68° East  Level FlightAware Approximate
Mon 02:35:18 AM 52.8333 -50.6333 68° East 320 368 34,000  Level Gander Center
Mon 02:36:18 AM 52.8500 -50.4000 83° East 450 518 34,000 21 Level Gander Center
Mon 02:38:00 AM 52.9817 -50.0491 58° Northeast  Level FlightAware Approximate
Mon 02:45:00 AM 53.3768 -48.4576 67° East  Level FlightAware Approximate
Mon 02:46:00 AM 53.4304 -48.2288 68° East  Level FlightAware Approximate
Mon 02:47:00 AM 53.4836 -47.9994 69° East  Level FlightAware Approximate
Mon 02:48:00 AM 53.5364 -47.7693 69° East  Level FlightAware Approximate
Mon 02:49:00 AM 53.5887 -47.5388 69° East  Level FlightAware Approximate
Mon 02:50:00 AM 53.6406 -47.3076 69° East  Level FlightAware Approximate
Mon 02:51:00 AM 53.6921 -47.0759 69° East  Level FlightAware Approximate
Mon 02:52:00 AM 53.7431 -46.8436 70° East  Level FlightAware Approximate
Mon 02:53:00 AM 53.7936 -46.6108 70° East  Level FlightAware Approximate
Mon 02:54:00 AM 53.8437 -46.3774 70° East  Level FlightAware Approximate
Mon 02:55:00 AM 53.8934 -46.1434 70° East  Level FlightAware Approximate
Mon 02:56:00 AM 53.9426 -45.9089 70° East  Level FlightAware Approximate
Mon 02:57:00 AM 53.9913 -45.6739 70° East  Level FlightAware Approximate
Mon 02:58:00 AM 54.0396 -45.4382 71° East  Level FlightAware Approximate
Mon 02:59:00 AM 54.0874 -45.2021 71° East  Level FlightAware Approximate
Mon 03:00:00 AM 54.1347 -44.9654 71° East  Level FlightAware Approximate
Mon 03:01:00 AM 54.1816 -44.7281 71° East  Level FlightAware Approximate
Mon 03:02:00 AM 54.2280 -44.4904 71° East  Level FlightAware Approximate
Mon 03:03:00 AM 54.2739 -44.2521 72° East  Level FlightAware Approximate
Mon 03:04:00 AM 54.3194 -44.0132 72° East  Level FlightAware Approximate
Mon 03:05:00 AM 54.3644 -43.7739 72° East  Level FlightAware Approximate
Mon 03:06:00 AM 54.4089 -43.5340 72° East  Level FlightAware Approximate
Mon 03:07:00 AM 54.4530 -43.2936 72° East  Level FlightAware Approximate
Mon 03:08:00 AM 54.4966 -43.0527 73° East  Level FlightAware Approximate
Mon 03:09:00 AM 54.5396 -42.8112 73° East  Level FlightAware Approximate
Mon 03:10:00 AM 54.5823 -42.5693 73° East  Level FlightAware Approximate
Mon 03:11:00 AM 54.6244 -42.3269 73° East  Level FlightAware Approximate
Mon 03:12:00 AM 54.6660 -42.0839 73° East  Level FlightAware Approximate
Mon 03:13:00 AM 54.7072 -41.8405 74° East  Level FlightAware Approximate
Mon 03:14:00 AM 54.7478 -41.5966 74° East  Level FlightAware Approximate
Mon 03:15:00 AM 54.7880 -41.3522 74° East  Level FlightAware Approximate
Mon 03:16:00 AM 54.8277 -41.1073 74° East  Level FlightAware Approximate
Mon 03:17:00 AM 54.8669 -40.8619 74° East  Level FlightAware Approximate
Mon 03:18:00 AM 54.9055 -40.6160 75° East  Level FlightAware Approximate
Mon 03:19:00 AM 54.9437 -40.3697 75° East  Level FlightAware Approximate
Mon 03:20:00 AM 54.9814 -40.1229 75° East  Level FlightAware Approximate
Mon 03:21:00 AM 55.0289 -39.8818 67° East  Level FlightAware Approximate
Mon 03:22:00 AM 55.0861 -39.6461 67° East  Level FlightAware Approximate
Mon 03:23:00 AM 55.1428 -39.4098 67° East  Level FlightAware Approximate
Mon 03:24:00 AM 55.1991 -39.1727 67° East  Level FlightAware Approximate
Mon 03:25:00 AM 55.2549 -38.9350 68° East  Level FlightAware Approximate
Mon 03:26:00 AM 55.3102 -38.6966 68° East  Level FlightAware Approximate
Mon 03:27:00 AM 55.3651 -38.4576 68° East  Level FlightAware Approximate
Mon 03:28:00 AM 55.4195 -38.2179 68° East  Level FlightAware Approximate
Mon 03:29:00 AM 55.4735 -37.9775 68° East  Level FlightAware Approximate
Mon 03:30:00 AM 55.5288 -37.7378 68° East  Level FlightAware Approximate
Mon 03:31:00 AM 55.5840 -37.4977 68° East  Level FlightAware Approximate
Mon 03:32:00 AM 55.6388 -37.2569 68° East  Level FlightAware Approximate
Mon 03:33:00 AM 55.6931 -37.0155 68° East  Level FlightAware Approximate
Mon 03:34:00 AM 55.7469 -36.7734 68° East  Level FlightAware Approximate
Mon 03:35:00 AM 55.8003 -36.5306 69° East  Level FlightAware Approximate
Mon 03:36:00 AM 55.8531 -36.2871 69° East  Level FlightAware Approximate
Mon 03:37:00 AM 55.9055 -36.0430 69° East  Level FlightAware Approximate
Mon 03:38:00 AM 55.9572 -35.7981 70° East  Level FlightAware Approximate
Mon 03:39:00 AM 56.0073 -35.5518 70° East  Level FlightAware Approximate
Mon 03:40:00 AM 56.0569 -35.3049 70° East  Level FlightAware Approximate
Mon 03:41:00 AM 56.1060 -35.0573 70° East  Level FlightAware Approximate
Mon 03:42:00 AM 56.1546 -34.8091 71° East  Level FlightAware Approximate
Mon 03:43:00 AM 56.2027 -34.5603 71° East  Level FlightAware Approximate
Mon 03:44:00 AM 56.2507 -34.3111 71° East  Level FlightAware Approximate
Mon 03:45:00 AM 56.2990 -34.0618 71° East  Level FlightAware Approximate
Mon 03:46:00 AM 56.3467 -33.8118 71° East  Level FlightAware Approximate
Mon 03:47:00 AM 56.3940 -33.5612 71° East  Level FlightAware Approximate
Mon 03:48:00 AM 56.4408 -33.3100 71° East  Level FlightAware Approximate
Mon 03:49:00 AM 56.4870 -33.0582 72° East  Level FlightAware Approximate
Mon 03:50:00 AM 56.5327 -32.8057 72° East  Level FlightAware Approximate
Mon 03:51:00 AM 56.5780 -32.5527 72° East  Level FlightAware Approximate
Mon 03:52:00 AM 56.6227 -32.2990 72° East  Level FlightAware Approximate
Mon 03:53:00 AM 56.6669 -32.0448 72° East  Level FlightAware Approximate
Mon 03:54:00 AM 56.7105 -31.7900 73° East  Level FlightAware Approximate
Mon 03:55:00 AM 56.7537 -31.5345 73° East  Level FlightAware Approximate
Mon 03:56:00 AM 56.7963 -31.2785 73° East  Level FlightAware Approximate
Mon 03:57:00 AM 56.8384 -31.0219 73° East  Level FlightAware Approximate
Mon 03:58:00 AM 56.8800 -30.7648 73° East  Level FlightAware Approximate
Mon 03:59:00 AM 56.9211 -30.5070 74° East  Level FlightAware Approximate
Mon 04:00:00 AM 56.9616 -30.2487 74° East  Level FlightAware Approximate
Mon 04:01:00 AM 57.0004 -29.9895 86° East  Level FlightAware Approximate
Mon 04:02:00 AM 57.0108 -29.7210 86° East  Level FlightAware Approximate
Mon 04:03:00 AM 57.0207 -29.4523 86° East  Level FlightAware Approximate
Mon 04:04:00 AM 57.0299 -29.1835 86° East  Level FlightAware Approximate
Mon 04:05:00 AM 57.0386 -28.9145 86° East  Level FlightAware Approximate
Mon 04:06:00 AM 57.0468 -28.6454 87° East  Level FlightAware Approximate
Mon 04:07:00 AM 57.0543 -28.3762 87° East  Level FlightAware Approximate
Mon 04:08:00 AM 57.0613 -28.1069 87° East  Level FlightAware Approximate
Mon 04:09:00 AM 57.0676 -27.8375 87° East  Level FlightAware Approximate
Mon 04:10:00 AM 57.0734 -27.5680 88° East  Level FlightAware Approximate
Mon 04:11:00 AM 57.0787 -27.2985 88° East  Level FlightAware Approximate
Mon 04:12:00 AM 57.0833 -27.0288 88° East  Level FlightAware Approximate
Mon 04:13:00 AM 57.0874 -26.7591 88° East  Level FlightAware Approximate
Mon 04:14:00 AM 57.0909 -26.4893 89° East  Level FlightAware Approximate
Mon 04:15:00 AM 57.0938 -26.2195 89° East  Level FlightAware Approximate
Mon 04:16:00 AM 57.0961 -25.9497 89° East  Level FlightAware Approximate
Mon 04:17:00 AM 57.0979 -25.6798 89° East  Level FlightAware Approximate
Mon 04:18:00 AM 57.0990 -25.4100 89° East  Level FlightAware Approximate
Mon 04:19:00 AM 57.0996 -25.1400 90° East  Level FlightAware Approximate
Mon 04:20:00 AM 57.0996 -24.8701 90° East  Level FlightAware Approximate
Mon 04:21:00 AM 57.0991 -24.6002 90° East  Level FlightAware Approximate
Mon 04:22:00 AM 57.0979 -24.3303 90° East  Level FlightAware Approximate
Mon 04:23:00 AM 57.0962 -24.0605 91° East  Level FlightAware Approximate
Mon 04:24:00 AM 57.0939 -23.7906 91° East  Level FlightAware Approximate
Mon 04:25:00 AM 57.0910 -23.5208 91° East  Level FlightAware Approximate
Mon 04:26:00 AM 57.0875 -23.2511 91° East  Level FlightAware Approximate
Mon 04:27:00 AM 57.0835 -22.9813 91° East  Level FlightAware Approximate
Mon 04:28:00 AM 57.0788 -22.7117 92° East  Level FlightAware Approximate
Mon 04:29:00 AM 57.0737 -22.4421 92° East  Level FlightAware Approximate
Mon 04:30:00 AM 57.0679 -22.1726 92° East  Level FlightAware Approximate
Mon 04:31:00 AM 57.0615 -21.9037 92° East  Level FlightAware Approximate
Mon 04:32:00 AM 57.0546 -21.6349 93° East  Level FlightAware Approximate
Mon 04:33:00 AM 57.0471 -21.3661 93° East  Level FlightAware Approximate
Mon 04:34:00 AM 57.0390 -21.0975 93° East  Level FlightAware Approximate
Mon 04:35:00 AM 57.0304 -20.8290 93° East  Level FlightAware Approximate
Mon 04:36:00 AM 57.0211 -20.5606 94° East  Level FlightAware Approximate
Mon 04:37:00 AM 57.0113 -20.2924 94° East  Level FlightAware Approximate
Mon 04:38:00 AM 57.0010 -20.0243 94° East  Level FlightAware Approximate
Mon 04:39:00 AM 56.9597 -19.7672 108° East  Level FlightAware Approximate
Mon 04:40:00 AM 56.9149 -19.5119 108° East  Level FlightAware Approximate
Mon 04:41:00 AM 56.8696 -19.2571 108° East  Level FlightAware Approximate
Mon 04:42:00 AM 56.8237 -19.0029 108° East  Level FlightAware Approximate
Mon 04:43:00 AM 56.7774 -18.7494 108° East  Level FlightAware Approximate
Mon 04:44:00 AM 56.7305 -18.4965 109° East  Level FlightAware Approximate
Mon 04:45:00 AM 56.6831 -18.2442 109° East  Level FlightAware Approximate
Mon 04:46:00 AM 56.6352 -17.9926 109° East  Level FlightAware Approximate
Mon 04:47:00 AM 56.5868 -17.7416 109° East  Level FlightAware Approximate
Mon 04:48:00 AM 56.5380 -17.4917 109° East  Level FlightAware Approximate
Mon 04:49:00 AM 56.4887 -17.2424 110° East  Level FlightAware Approximate
Mon 04:50:00 AM 56.4389 -16.9938 110° East  Level FlightAware Approximate
Mon 04:51:00 AM 56.3887 -16.7458 110° East  Level FlightAware Approximate
Mon 04:52:00 AM 56.3379 -16.4985 110° East  Level FlightAware Approximate
Mon 04:53:00 AM 56.2866 -16.2519 110° East  Level FlightAware Approximate
Mon 04:54:00 AM 56.2349 -16.0059 111° Southeast  Level FlightAware Approximate
Mon 04:55:00 AM 56.1826 -15.7605 111° Southeast  Level FlightAware Approximate
Mon 04:56:00 AM 56.1299 -15.5159 111° Southeast  Level FlightAware Approximate
Mon 04:56:23 AM 56.3900 -12.3600 111° Southeast 523 602 37,000  Level FlightAware ADS-B
Mon 04:56:58 AM 56.3550 -12.2210 114° Southeast 523 602 37,100  Climbing FlightAware ADS-B
Mon 04:57:00 AM 56.0767 -15.2719 111° Southeast  Level FlightAware Approximate
Mon 04:57:38 AM 56.3160 -12.0620 114° Southeast 523 602 37,000  Level FlightAware ADS-B
Mon 04:58:13 AM 56.2810 -11.9230 114° Southeast 520 598 37,000 86 Level FlightAware ADS-B
Mon 04:58:48 AM 56.2460 -11.7840 114° Southeast 521 600 37,100  Climbing FlightAware ADS-B
Mon 04:59:28 AM 56.2060 -11.6220 114° Southeast 521 600 37,000 -86 Descending FlightAware ADS-B
Mon 04:59:58 AM 56.1760 -11.5080 115° Southeast 522 601 37,000  Level FlightAware ADS-B
Mon 05:00:33 AM 56.1400 -11.3650 114° Southeast 522 601 37,000 80 Level FlightAware ADS-B
Mon 05:01:13 AM 56.1010 -11.2150 115° Southeast 522 601 37,100 86 Climbing FlightAware ADS-B
Mon 05:01:43 AM 56.0700 -11.0960 115° Southeast 523 602 37,100  Level FlightAware ADS-B
Mon 05:02:23 AM 56.0280 -10.9350 115° Southeast 526 605 37,100 -86 Level FlightAware ADS-B
Mon 05:02:53 AM 55.9970 -10.8170 115° Southeast 527 606 37,000 -92 Descending FlightAware ADS-B
Mon 05:03:28 AM 55.9600 -10.6800 116° Southeast 527 606 37,000  Level FlightAware ADS-B
Mon 05:04:03 AM 55.9240 -10.5420 115° Southeast 527 606 37,000  Level FlightAware ADS-B
Mon 05:04:38 AM 55.8870 -10.4050 116° Southeast 528 608 37,000  Level FlightAware ADS-B
Mon 05:05:13 AM 55.8500 -10.2680 116° Southeast 528 608 37,000 80 Level FlightAware ADS-B
Mon 05:05:53 AM 55.8080 -10.1120 116° Southeast 528 608 37,100  Climbing FlightAware ADS-B
Mon 05:06:23 AM 55.7770 -9.9950 115° Southeast 527 606 37,000 -91 Descending FlightAware ADS-B
Mon 05:06:59 AM 55.7380 -9.8550 116° Southeast 524 603 37,000  Level FlightAware ADS-B
Mon 05:07:33 AM 55.7010 -9.7190 116° Southeast 525 604 37,000 87 Level FlightAware ADS-B
Mon 05:08:08 AM 55.6640 -9.5830 116° Southeast 524 603 37,100 86 Climbing FlightAware ADS-B
Mon 05:08:43 AM 55.6260 -9.4520 117° Southeast 525 604 37,100  Level FlightAware ADS-B
Mon 05:09:19 AM 55.5870 -9.3130 116° Southeast 524 603 37,100  Level FlightAware ADS-B
Mon 05:09:53 AM 55.5500 -9.1780 116° Southeast 523 602 37,100 -87 Level FlightAware ADS-B
Mon 05:10:28 AM 55.5120 -9.0440 117° Southeast 523 602 37,000 -86 Descending FlightAware ADS-B
Mon 05:11:03 AM 55.4740 -8.9130 117° Southeast 523 602 37,000  Level FlightAware ADS-B
Mon 05:11:44 AM 55.4269 -8.7471 117° Southeast 492 566 37,000 120 Level FlightAware UK
Mon 05:11:53 AM 55.4190 -8.7220 117° Southeast 527 606 37,100  Climbing FlightAware ADS-B
Mon 05:12:29 AM 55.3800 -8.5880 117° Southeast 528 608 37,000  Descending FlightAware ADS-B
Mon 05:13:03 AM 55.3410 -8.4510 117° Southeast 528 608 37,100  Climbing FlightAware ADS-B
Mon 05:13:38 AM 55.3020 -8.3220 118° Southeast 528 608 37,000  Descending FlightAware ADS-B
Mon 05:14:13 AM 55.2630 -8.1850 118° Southeast 527 606 37,100  Climbing FlightAware ADS-B
Mon 05:14:14 AM 55.2599 -8.1750 118° Southeast 492 566 37,000 -194 Descending FlightAware UK
Mon 05:14:44 AM 55.2261 -8.0615 118° Southeast 492 566 37,000  Level FlightAware UK
Mon 05:14:48 AM 55.2240 -8.0520 118° Southeast 528 608 37,000  Level FlightAware ADS-B
Mon 05:15:24 AM 55.1840 -7.9200 118° Southeast 526 605 37,000 86 Level FlightAware ADS-B
Mon 05:15:58 AM 55.1450 -7.7920 118° Southeast 528 608 37,100  Climbing FlightAware ADS-B
Mon 05:16:34 AM 55.1050 -7.6560 117° Southeast 528 608 37,000  Descending FlightAware ADS-B
Mon 05:17:09 AM 55.0640 -7.5210 118° Southeast 525 604 37,100  Climbing FlightAware ADS-B
Mon 05:17:44 AM 55.0219 -7.3833 118° Southeast 494 568 37,000  Descending FlightAware UK
Mon 05:17:45 AM 55.0230 -7.3890 118° Southeast 526 605 37,100  Climbing FlightAware ADS-B
Mon 05:18:15 AM 54.9873 -7.2695 118° Southeast 494 568 37,000 -176 Descending FlightAware UK
Mon 05:18:19 AM 54.9840 -7.2610 118° Southeast 525 604 37,000 154 Level FlightAware ADS-B
Mon 05:18:54 AM 54.9430 -7.1260 118° Southeast 524 603 37,100 80 Climbing FlightAware ADS-B
Mon 05:19:34 AM 54.8970 -6.9810 119° Southeast 523 602 37,100 -80 Level FlightAware ADS-B
Mon 05:20:09 AM 54.8560 -6.8470 118° Southeast 525 604 37,000 -85 Descending FlightAware ADS-B
Mon 05:20:45 AM 54.8139 -6.7109 118° Southeast 496 571 37,000  Level FlightAware UK
Mon 05:20:49 AM 54.8100 -6.7020 118° Southeast 525 604 37,000  Level FlightAware ADS-B
Mon 05:21:19 AM 54.7750 -6.5870 118° Southeast 524 603 37,000  Level FlightAware ADS-B
Mon 05:21:54 AM 54.7340 -6.4580 119° Southeast 523 602 37,000 86 Level FlightAware ADS-B
Mon 05:22:29 AM 54.6930 -6.3330 120° Southeast 521 600 37,100  Climbing FlightAware ADS-B
Mon 05:23:09 AM 54.6480 -6.2000 120° Southeast 525 604 37,000 -85 Descending FlightAware ADS-B
Mon 05:23:40 AM 54.6000 -6.0840 126° Southeast 522 601 37,000  Level FlightAware ADS-B
Mon 05:24:15 AM 54.5515 -5.9542 126° Southeast 492 566 37,000  Level FlightAware UK
Mon 05:24:16 AM 54.5520 -5.9550 126° Southeast 523 602 37,000  Level FlightAware ADS-B
Mon 05:24:52 AM 54.4950 -5.8430 131° Southeast 517 595 37,000 83 Level FlightAware ADS-B
Mon 05:25:28 AM 54.4260 -5.7510 142° Southeast 510 587 37,100 88 Climbing FlightAware ADS-B
Mon 05:26:00 AM 54.3670 -5.6820 146° Southeast 510 587 37,100  Level FlightAware ADS-B
Mon 05:26:37 AM 54.2930 -5.5900 144° Southeast 512 589 37,100  Level FlightAware ADS-B
Mon 05:27:11 AM 54.2380 -5.4920 134° Southeast 520 598 37,100 -88 Level FlightAware ADS-B
Mon 05:27:45 AM 54.1893 -5.3752 134° Southeast 496 571 37,000  Descending FlightAware UK
Mon 05:27:47 AM 54.1870 -5.3730 134° Southeast 522 601 37,100  Climbing FlightAware ADS-B
Mon 05:28:20 AM 54.1400 -5.2630 126° Southeast 522 601 37,000  Descending FlightAware ADS-B
Mon 05:28:58 AM 54.0880 -5.1360 125° Southeast 521 600 37,100  Climbing FlightAware ADS-B
Mon 05:29:30 AM 54.0420 -5.0300 126° Southeast 520 598 37,000  Descending FlightAware ADS-B
Mon 05:30:06 AM 53.9920 -4.9150 126° Southeast 522 601 37,100 83 Climbing FlightAware ADS-B
Mon 05:30:42 AM 53.9380 -4.7890 126° Southeast 523 602 37,100 -85 Level FlightAware ADS-B
Mon 05:31:17 AM 53.8880 -4.6740 126° Southeast 522 601 37,000  Descending FlightAware ADS-B
Mon 05:31:50 AM 53.8390 -4.5720 129° Southeast 523 602 37,100  Climbing FlightAware ADS-B
Mon 05:32:27 AM 53.7809 -4.4506 129° Southeast 494 568 37,000  Descending FlightAware UK
Mon 05:32:28 AM 53.7810 -4.4520 129° Southeast 524 603 37,100  Climbing FlightAware ADS-B
Mon 05:32:58 AM 53.7350 -4.3560 129° Southeast 524 603 37,000  Descending FlightAware ADS-B
Mon 05:33:36 AM 53.6770 -4.2350 129° Southeast 524 603 37,100 81 Climbing FlightAware ADS-B
Mon 05:34:12 AM 53.6220 -4.1210 129° Southeast 523 602 37,100  Level FlightAware ADS-B
Mon 05:34:48 AM 53.5680 -4.0070 129° Southeast 522 601 37,100 -88 Level FlightAware ADS-B
Mon 05:35:20 AM 53.5190 -3.9060 129° Southeast 521 600 37,000 -182 Descending FlightAware ADS-B
Mon 05:35:21 AM 53.5165 -3.8976 129° Southeast 492 566 37,000  Level FlightAware UK
Mon 05:35:58 AM 53.4608 -3.7837 129° Southeast 522 601 37,000 85 Level FlightAware ADS-B
Mon 05:36:32 AM 53.4110 -3.6810 129° Southeast 521 600 37,100  Climbing FlightAware ADS-B
Mon 05:36:40 AM 53.3962 -3.6525 131° Southeast 522 601 37,000  Descending FlightAware ADS-B
Mon 05:37:13 AM 53.3468 -3.5525 130° Southeast 521 600 37,100  Climbing FlightAware ADS-B
Mon 05:37:45 AM 53.2981 -3.4532 129° Southeast 521 600 37,000  Descending FlightAware ADS-B
Mon 05:38:17 AM 53.2500 -3.3540 129° Southeast 520 598 37,100 107 Climbing FlightAware ADS-B
Mon 05:38:41 AM 53.2111 -3.2766 130° Southeast 521 600 37,100  Level FlightAware ADS-B
Mon 05:39:12 AM 53.1642 -3.1812 129° Southeast 520 598 37,100  Level FlightAware ADS-B
Mon 05:39:44 AM 53.1157 -3.0859 130° Southeast 520 598 37,100  Level FlightAware ADS-B
Mon 05:40:17 AM 53.0651 -2.9846 130° Southeast 520 598 37,100 -90 Level FlightAware ADS-B
Mon 05:40:51 AM 53.0126 -2.8777 129° Southeast 521 600 37,000 -92 Descending FlightAware ADS-B
Mon 05:41:22 AM 52.9648 -2.7830 129° Southeast 498 573 37,000  Level FlightAware UK
Mon 05:41:42 AM 52.9338 -2.7246 129° Southeast 521 600 37,000 109 Level FlightAware ADS-B
Mon 05:42:17 AM 52.8792 -2.6154 130° Southeast 520 598 37,100  Climbing FlightAware ADS-B
Mon 05:42:47 AM 52.8325 -2.5241 130° Southeast 520 598 37,000 -100 Descending FlightAware ADS-B
Mon 05:43:17 AM 52.7862 -2.4337 130° Southeast 519 597 37,000 95 Level FlightAware ADS-B
Mon 05:43:50 AM 52.7326 -2.3376 133° Southeast 517 595 37,100  Climbing FlightAware ADS-B
Mon 05:44:26 AM 52.6749 -2.2368 133° Southeast 516 594 37,000 -91 Descending FlightAware ADS-B
Mon 05:44:56 AM 52.6258 -2.1510 133° Southeast 515 593 37,000  Level FlightAware ADS-B
Mon 05:45:26 AM 52.5769 -2.0627 132° Southeast 515 593 37,000  Level FlightAware ADS-B
Mon 05:45:56 AM 52.5280 -1.9771 133° Southeast 515 593 37,000 100 Level FlightAware ADS-B
Mon 05:46:26 AM 52.4792 -1.8917 133° Southeast 514 592 37,100  Climbing FlightAware ADS-B
Mon 05:46:57 AM 52.4293 -1.8065 134° Southeast 516 594 37,000 -95 Descending FlightAware ADS-B
Mon 05:47:29 AM 52.3764 -1.7128 133° Southeast 517 595 37,000 91 Level FlightAware ADS-B
Mon 05:48:03 AM 52.3211 -1.6190 134° Southeast 517 595 37,100  Climbing FlightAware ADS-B
Mon 05:48:36 AM 52.2654 -1.5225 133° Southeast 518 596 37,000  Descending FlightAware ADS-B
Mon 05:49:09 AM 52.2108 -1.4289 134° Southeast 520 598 37,100  Climbing FlightAware ADS-B
Mon 05:49:40 AM 52.1608 -1.3440 134° Southeast 520 598 37,000 -97 Descending FlightAware ADS-B
Mon 05:50:11 AM 52.1095 -1.2562 134° Southeast 520 598 37,000 98 Level FlightAware ADS-B
Mon 05:50:41 AM 52.0594 -1.1717 134° Southeast 521 600 37,100  Climbing FlightAware ADS-B
Mon 05:51:11 AM 52.0094 -1.0873 134° Southeast 520 598 37,000  Descending FlightAware ADS-B
Mon 05:51:43 AM 51.9558 -0.9947 133° Southeast 520 598 37,100 97 Climbing FlightAware ADS-B
Mon 05:52:13 AM 51.9049 -0.9107 134° Southeast 520 598 37,100  Level FlightAware ADS-B
Mon 05:52:30 AM 51.8773 -0.8622 133° Southeast 520 598 37,100  Level FlightAware ADS-B
Mon 05:52:45 AM 51.8550 -0.8169 129° Southeast 520 598 37,100  Level FlightAware ADS-B
Mon 05:53:09 AM 51.8236 -0.7390 123° Southeast 520 598 37,100  Level FlightAware ADS-B
Mon 05:53:22 AM 51.8091 -0.6982 120° Southeast 520 598 37,100  Level FlightAware ADS-B
Mon 05:53:53 AM 51.7765 -0.5867 115° Southeast 519 597 37,100 -98 Level FlightAware ADS-B
Mon 05:54:23 AM 51.7450 -0.4820 116° Southeast 518 596 37,000 -98 Descending FlightAware ADS-B
Mon 05:54:54 AM 51.7137 -0.3778 116° Southeast 518 596 37,000  Level FlightAware ADS-B
Mon 05:55:24 AM 51.6817 -0.2705 116° Southeast 517 595 37,000 98 Level FlightAware ADS-B
Mon 05:55:55 AM 51.6501 -0.1667 116° Southeast 517 595 37,100  Climbing FlightAware ADS-B
Mon 05:56:25 AM 51.6181 -0.0598 116° Southeast 517 595 37,000  Descending FlightAware ADS-B
Mon 05:56:59 AM 51.5825 0.0574 116° Southeast 517 595 37,100  Climbing FlightAware ADS-B
Mon 05:57:30 AM 51.5503 0.1604 117° Southeast 516 594 37,000  Descending FlightAware ADS-B
Mon 05:57:52 AM 51.5262 0.2393 116° Southeast 517 595 37,100  Climbing FlightAware ADS-B
Mon 05:58:23 AM 51.4930 0.3448 117° Southeast 517 595 37,000  Descending FlightAware ADS-B
Mon 05:58:55 AM 51.4580 0.4536 117° Southeast 517 595 37,100 97 Climbing FlightAware ADS-B
Mon 05:59:25 AM 51.4251 0.5556 117° Southeast 517 595 37,100 -97 Level FlightAware ADS-B
Mon 05:59:57 AM 51.3903 0.6643 117° Southeast 517 595 37,000 -92 Descending FlightAware ADS-B
Mon 06:00:30 AM 51.3543 0.7731 118° Southeast 519 597 37,000  Level FlightAware ADS-B
Mon 06:01:02 AM 51.3186 0.8852 117° Southeast 519 597 37,000 97 Level FlightAware ADS-B
Mon 06:01:32 AM 51.2849 0.9869 118° Southeast 519 597 37,100  Climbing FlightAware ADS-B
Mon 06:02:03 AM 51.2503 1.0921 118° Southeast 519 597 37,000 -128 Descending FlightAware ADS-B
Mon 06:02:19 AM 51.2342 1.1435 117° Southeast 518 596 37,000 128 Level FlightAware ADS-B
Mon 06:02:50 AM 51.2159 1.2564 104° East 514 592 37,100 74 Climbing FlightAware ADS-B
Mon 06:03:40 AM 51.1980 1.4390 99° East 511 588 37,100 -69 Level FlightAware ADS-B
Mon 06:04:17 AM 51.1890 1.5700 96° East 511 588 37,000 -85 Descending FlightAware ADS-B
Mon 06:04:51 AM 51.1780 1.7080 97° East 511 588 37,000  Level FlightAware ADS-B
Mon 06:05:25 AM 51.1640 1.8300 100° East 513 590 37,000  Level FlightAware ADS-B
Mon 06:05:55 AM 51.1458 1.9481 100° East 496 571 37,000  Level FlightAware UK
Mon 06:05:59 AM 51.1450 1.9510 100° East 512 589 37,000  Level FlightAware ADS-B
Mon 06:06:35 AM 51.1230 2.0930 100° East 511 588 37,000  Level FlightAware ADS-B
Mon 06:06:37 AM 51.1214 2.1018 100° East 496 571 37,000  Level FlightAware UK
Mon 06:07:07 AM 51.1047 2.2111 100° East 496 571 37,000 171 Level FlightAware UK
Mon 06:07:12 AM 51.1030 2.2240 100° East 510 587 37,100 200 Climbing FlightAware ADS-B
Mon 06:07:37 AM 51.0900 2.3110 103° East 510 587 37,100 -109 Level FlightAware ADS-B
Mon 06:08:07 AM 51.0720 2.4297 103° East 496 571 37,000 -176 Descending FlightAware UK
Mon 06:08:11 AM 51.0710 2.4350 103° East 508 585 37,000  Level FlightAware ADS-B
Mon 06:08:51 AM 51.0490 2.5800 104° East 506 582 37,000  Level FlightAware ADS-B
Mon 06:09:27 AM 51.0290 2.7130 103° East 505 581 37,000  Level FlightAware ADS-B
Mon 06:10:03 AM 51.0070 2.8420 105° East 505 581 37,000  Level FlightAware ADS-B
Mon 06:10:31 AM 50.9910 2.9460 104° East 505 581 37,000  Level FlightAware ADS-B
Mon 06:11:11 AM 50.9680 3.0820 105° East 506 582 37,000  Level FlightAware ADS-B
Mon 06:11:49 AM 50.9438 3.2274 105° East 490 564 37,000  Level FlightAware UK
Mon 06:11:50 AM 50.9520 3.1750 105° East 506 582 37,000  Level FlightAware ADS-B
Mon 06:12:23 AM 50.9240 3.3430 105° East 507 583 37,000  Level FlightAware ADS-B
Mon 06:13:00 AM 50.9010 3.4800 105° East 508 585 37,000  Level FlightAware ADS-B
Mon 06:13:36 AM 50.8790 3.6090 105° East 509 586 37,000  Level FlightAware ADS-B
Mon 06:14:07 AM 50.8600 3.7227 105° East 494 568 37,000  Level FlightAware UK
Mon 06:14:12 AM 50.8580 3.7340 105° East 509 586 37,000  Level FlightAware ADS-B
Mon 06:14:49 AM 50.8339 3.8735 105° East 496 571 37,000 158 Level FlightAware UK
Mon 06:14:50 AM 50.8330 3.8740 105° East 510 587 37,100  Climbing FlightAware ADS-B
Mon 06:15:22 AM 50.8140 3.9890 105° East 509 586 37,000 -91 Descending FlightAware ADS-B
Mon 06:15:56 AM 50.7930 4.1070 106° East 509 586 37,000  Level FlightAware ADS-B
Mon 06:16:33 AM 50.7700 4.2390 105° East 509 586 37,000  Level FlightAware ADS-B
Mon 06:17:06 AM 50.7490 4.3540 106° East 510 587 37,000  Level FlightAware ADS-B
Mon 06:17:44 AM 50.7240 4.4970 105° East 510 587 37,000  Level FlightAware ADS-B
Mon 06:18:14 AM 50.6990 4.5980 111° Southeast 518 596 37,000  Level FlightAware ADS-B
Mon 06:18:52 AM 50.6510 4.7250 121° Southeast 521 600 37,000  Level FlightAware ADS-B
Mon 06:19:28 AM 50.6070 4.8390 121° Southeast 521 600 37,000  Level FlightAware ADS-B
Mon 06:20:02 AM 50.5640 4.9480 122° Southeast 523 602 37,000  Level FlightAware ADS-B
Mon 06:20:36 AM 50.5200 5.0520 124° Southeast 522 601 37,000 91 Level FlightAware ADS-B
Mon 06:21:08 AM 50.4770 5.1530 124° Southeast 522 601 37,100  Climbing FlightAware ADS-B
Mon 06:21:49 AM 50.4260 5.2770 123° Southeast 522 601 37,000 -78 Descending FlightAware ADS-B
Mon 06:22:25 AM 50.3780 5.3910 123° Southeast 522 601 37,000  Level FlightAware ADS-B
Mon 06:22:57 AM 50.3330 5.4980 123° Southeast 522 601 37,000  Level FlightAware ADS-B
Mon 06:23:29 AM 50.2900 5.5980 124° Southeast 523 602 37,000  Level FlightAware ADS-B
Mon 06:24:13 AM 50.2310 5.7370 124° Southeast 523 602 37,000  Level FlightAware ADS-B
Mon 06:24:45 AM 50.1900 5.8310 124° Southeast 523 602 37,000  Level FlightAware ADS-B
Mon 06:25:24 AM 50.1340 5.9630 123° Southeast 523 602 37,000  Level FlightAware ADS-B
Mon 06:25:59 AM 50.0870 6.0720 124° Southeast 524 603 37,000  Level FlightAware ADS-B
Mon 06:26:35 AM 50.0390 6.1840 124° Southeast 524 603 37,000  Level FlightAware ADS-B
Mon 06:27:11 AM 49.9920 6.2900 125° Southeast 524 603 37,000  Level FlightAware ADS-B
Mon 06:27:43 AM 49.9480 6.3900 124° Southeast 524 603 37,000  Level FlightAware ADS-B
Mon 06:28:18 AM 49.8990 6.5010 124° Southeast 524 603 37,000  Level FlightAware ADS-B
Mon 06:28:55 AM 49.8490 6.6160 124° Southeast 525 604 37,000 87 Level FlightAware ADS-B
Mon 06:29:27 AM 49.8030 6.7180 125° Southeast 525 604 37,100  Climbing FlightAware ADS-B
Mon 06:30:09 AM 49.7460 6.8480 124° Southeast 526 605 37,000 -75 Descending FlightAware ADS-B
Mon 06:30:47 AM 49.6930 6.9660 125° Southeast 526 605 37,000 88 Level FlightAware ADS-B
Mon 06:31:17 AM 49.6510 7.0580 125° Southeast 525 604 37,100  Climbing FlightAware ADS-B
Mon 06:31:57 AM 49.5950 7.1810 125° Southeast 526 605 37,000 -80 Descending FlightAware ADS-B
Mon 06:32:32 AM 49.5430 7.2850 128° Southeast 529 609 37,000 83 Level FlightAware ADS-B
Mon 06:33:09 AM 49.4850 7.3880 131° Southeast 530 610 37,100  Climbing FlightAware ADS-B
Mon 06:33:41 AM 49.4310 7.4810 132° Southeast 529 609 37,000 -79 Descending FlightAware ADS-B
Mon 06:34:25 AM 49.3600 7.6040 132° Southeast 528 608 37,000  Level FlightAware ADS-B
Mon 06:34:58 AM 49.3090 7.6940 131° Southeast 527 606 37,000  Level FlightAware ADS-B
Mon 06:35:33 AM 49.2490 7.7970 132° Southeast 527 606 37,000  Level FlightAware ADS-B
Mon 06:36:10 AM 49.1920 7.8950 132° Southeast 526 605 37,000  Level FlightAware ADS-B
Mon 06:36:43 AM 49.1390 7.9890 131° Southeast 526 605 37,000 85 Level FlightAware ADS-B
Mon 06:37:21 AM 49.0770 8.0940 132° Southeast 526 605 37,100  Climbing FlightAware ADS-B
Mon 06:37:50 AM 49.0300 8.1750 131° Southeast 525 604 37,000 -95 Descending FlightAware ADS-B
Mon 06:38:24 AM 48.9740 8.2710 132° Southeast 525 604 37,000  Level FlightAware ADS-B
Mon 06:39:03 AM 48.9110 8.3750 133° Southeast 525 604 37,000 79 Level FlightAware ADS-B
Mon 06:39:40 AM 48.8500 8.4790 132° Southeast 523 602 37,100  Climbing FlightAware ADS-B
Mon 06:40:13 AM 48.7970 8.5690 132° Southeast 523 602 37,000  Descending FlightAware ADS-B
Mon 06:40:49 AM 48.7380 8.6670 132° Southeast 523 602 37,100 83 Climbing FlightAware ADS-B
Mon 06:41:25 AM 48.6840 8.7560 133° Southeast 523 602 37,100 -87 Level FlightAware ADS-B
Mon 06:41:58 AM 48.6270 8.8510 132° Southeast 523 602 37,000 -87 Descending FlightAware ADS-B
Mon 06:42:34 AM 48.5670 8.9460 134° Southeast 525 604 37,000 83 Level FlightAware ADS-B
Mon 06:43:10 AM 48.5010 9.0380 137° Southeast 525 604 37,100  Climbing FlightAware ADS-B
Mon 06:43:41 AM 48.4470 9.1130 137° Southeast 527 606 37,000 -88 Descending FlightAware ADS-B
Mon 06:44:18 AM 48.3800 9.2020 139° Southeast 527 606 37,000  Level FlightAware ADS-B
Mon 06:44:50 AM 48.3200 9.2810 139° Southeast 526 605 37,000  Level FlightAware ADS-B
Mon 06:45:29 AM 48.2490 9.3730 139° Southeast 526 605 37,000  Level FlightAware ADS-B
Mon 06:46:03 AM 48.1860 9.4580 138° Southeast 527 606 37,000  Level FlightAware ADS-B
Mon 06:46:39 AM 48.1220 9.5430 138° Southeast 528 608 37,000  Level FlightAware ADS-B
Mon 06:47:10 AM 48.0630 9.6090 143° Southeast 532 612 37,000  Level FlightAware ADS-B
Mon 06:47:48 AM 47.9860 9.6930 144° Southeast 533 613 37,000 86 Level FlightAware ADS-B
Mon 06:48:20 AM 47.9220 9.7620 144° Southeast 533 613 37,100 77 Climbing FlightAware ADS-B
Mon 06:49:06 AM 47.8290 9.8650 143° Southeast 533 613 37,100 -76 Level FlightAware ADS-B
Mon 06:49:39 AM 47.7650 9.9350 144° Southeast 533 613 37,000 -87 Descending FlightAware ADS-B
Mon 06:50:15 AM 47.6920 10.0160 143° Southeast 533 613 37,000  Level FlightAware ADS-B
Mon 06:50:49 AM 47.6260 10.0880 144° Southeast 532 612 37,000  Level FlightAware ADS-B
Mon 06:51:26 AM 47.5550 10.1660 143° Southeast 531 611 37,000  Level FlightAware ADS-B
Mon 06:51:59 AM 47.4880 10.2420 143° Southeast 530 610 37,000  Level FlightAware ADS-B
Mon 06:52:34 AM 47.4200 10.3150 144° Southeast 529 609 37,000  Level FlightAware ADS-B
Mon 06:53:07 AM 47.3620 10.3770 144° Southeast 529 609 37,000  Level FlightAware ADS-B
Mon 06:53:43 AM 47.2840 10.4620 144° Southeast 527 606 37,000  Level FlightAware ADS-B
Mon 06:54:29 AM 47.1990 10.5530 144° Southeast 520 598 37,000  Level FlightAware ADS-B
Mon 06:55:00 AM 47.1320 10.6250 144° Southeast 526 605 37,000 79 Level FlightAware ADS-B
Mon 06:55:45 AM 47.0460 10.7210 143° Southeast 523 602 37,100  Climbing FlightAware ADS-B
Mon 06:56:20 AM 46.9880 10.7970 138° Southeast 510 587 37,000  Descending FlightAware ADS-B
Mon 06:56:54 AM 46.9290 10.8880 133° Southeast 509 586 37,100  Climbing FlightAware ADS-B
Mon 06:57:29 AM 46.8720 10.9800 132° Southeast 508 585 37,000 -91 Descending FlightAware ADS-B
Mon 06:58:00 AM 46.8250 11.0540 133° Southeast 509 586 37,000 90 Level FlightAware ADS-B
Mon 06:58:36 AM 46.7650 11.1480 133° Southeast 515 593 37,100  Climbing FlightAware ADS-B
Mon 06:59:15 AM 46.7020 11.2470 133° Southeast 515 593 37,000 -86 Descending FlightAware ADS-B
Mon 06:59:46 AM 46.6570 11.3150 134° Southeast 515 593 37,000  Level FlightAware ADS-B
Mon 07:00:24 AM 46.5860 11.4260 133° Southeast 515 593 37,000 80 Level FlightAware ADS-B
Mon 07:01:01 AM 46.5270 11.5160 134° Southeast 515 593 37,100  Climbing FlightAware ADS-B
Mon 07:01:33 AM 46.4730 11.6000 133° Southeast 517 595 37,000 -88 Descending FlightAware ADS-B
Mon 07:02:09 AM 46.4150 11.6870 134° Southeast 517 595 37,000  Level FlightAware ADS-B
Mon 07:02:45 AM 46.3540 11.7800 134° Southeast 516 594 37,000  Level FlightAware ADS-B
Mon 07:03:26 AM 46.2900 11.8780 133° Southeast 515 593 37,000  Level FlightAware ADS-B
Mon 07:03:56 AM 46.2440 11.9470 134° Southeast 515 593 37,000  Level FlightAware ADS-B
Mon 07:04:39 AM 46.1710 12.0570 134° Southeast 514 592 37,000  Level FlightAware ADS-B
Mon 07:05:10 AM 46.1160 12.1400 134° Southeast 512 589 37,000 87 Level FlightAware ADS-B
Mon 07:05:48 AM 46.0570 12.2290 134° Southeast 512 589 37,100  Climbing FlightAware ADS-B
Mon 07:06:24 AM 45.9970 12.3200 133° Southeast 512 589 37,000 -88 Descending FlightAware ADS-B
Mon 07:06:56 AM 45.9510 12.3970 131° Southeast 509 586 37,000  Level FlightAware ADS-B
Mon 07:07:31 AM 45.8990 12.4930 128° Southeast 506 582 37,000  Level FlightAware ADS-B
Mon 07:08:06 AM 45.8490 12.5860 128° Southeast 507 583 37,000  Level FlightAware ADS-B
Mon 07:08:41 AM 45.7990 12.6800 127° Southeast 507 583 37,000  Level FlightAware ADS-B
Mon 07:09:15 AM 45.7520 12.7690 127° Southeast 506 582 37,000  Level FlightAware ADS-B
Mon 07:09:51 AM 45.7010 12.8670 127° Southeast 505 581 37,000 86 Level FlightAware ADS-B
Mon 07:10:25 AM 45.6570 12.9500 127° Southeast 505 581 37,100  Climbing FlightAware ADS-B
Mon 07:10:59 AM 45.6030 13.0510 127° Southeast 506 582 37,000 -85 Descending FlightAware ADS-B
Mon 07:11:36 AM 45.5500 13.1500 127° Southeast 505 581 37,000  Level FlightAware ADS-B
Mon 07:12:11 AM 45.5010 13.2420 127° Southeast 504 580 37,000  Level FlightAware ADS-B
Mon 07:12:46 AM 45.4530 13.3350 126° Southeast 503 579 37,000 86 Level FlightAware ADS-B
Mon 07:13:21 AM 45.4020 13.4290 128° Southeast 503 579 37,100  Climbing FlightAware ADS-B
Mon 07:13:56 AM 45.3530 13.5180 128° Southeast 503 579 37,000 -86 Descending FlightAware ADS-B
Mon 07:14:31 AM 45.3040 13.6100 127° Southeast 501 577 37,000  Level FlightAware ADS-B
Mon 07:15:11 AM 45.2470 13.7140 128° Southeast 499 574 37,000  Level FlightAware ADS-B
Mon 07:15:46 AM 45.1990 13.8020 128° Southeast 499 574 37,000  Level FlightAware ADS-B
Mon 07:16:21 AM 45.1500 13.8920 128° Southeast 498 573 37,000  Level FlightAware ADS-B
Mon 07:16:56 AM 45.0990 13.9850 128° Southeast 497 572 37,000  Level FlightAware ADS-B
Mon 07:17:31 AM 45.0500 14.0750 128° Southeast 498 573 37,000  Level FlightAware ADS-B
Mon 07:18:11 AM 44.9930 14.1800 127° Southeast 498 573 37,000  Level FlightAware ADS-B
Mon 07:18:40 AM 44.9530 14.2520 128° Southeast 498 573 37,000  Level FlightAware ADS-B
Mon 07:19:15 AM 44.9040 14.3390 128° Southeast 498 573 37,000  Level FlightAware ADS-B
Mon 07:19:53 AM 44.8510 14.4360 128° Southeast 499 574 37,000  Level FlightAware ADS-B
Mon 07:20:28 AM 44.8010 14.5250 128° Southeast 499 574 37,000  Level FlightAware ADS-B
Mon 07:21:04 AM 44.7510 14.6110 129° Southeast 498 573 37,000  Level FlightAware ADS-B
Mon 07:21:39 AM 44.7010 14.7000 128° Southeast 498 573 37,000  Level FlightAware ADS-B
Mon 07:22:14 AM 44.6490 14.7940 128° Southeast 497 572 37,000  Level FlightAware ADS-B
Mon 07:22:54 AM 44.5930 14.8930 128° Southeast 497 572 37,000  Level FlightAware ADS-B
Mon 07:23:30 AM 44.5400 14.9860 129° Southeast 497 572 37,000  Level FlightAware ADS-B
Mon 07:24:04 AM 44.4900 15.0740 129° Southeast 497 572 37,000  Level FlightAware ADS-B
Mon 07:24:43 AM 44.4400 15.1590 129° Southeast 493 567 37,000  Level FlightAware ADS-B
Mon 07:25:24 AM 44.3750 15.2720 129° Southeast 492 566 37,000  Level FlightAware ADS-B
Mon 07:26:00 AM 44.3230 15.3640 128° Southeast 492 566 37,000  Level FlightAware ADS-B
Mon 07:26:34 AM 44.2740 15.4490 129° Southeast 492 566 37,000  Level FlightAware ADS-B
Mon 07:27:05 AM 44.2300 15.5240 129° Southeast 492 566 37,000  Level FlightAware ADS-B
Mon 07:27:40 AM 44.1790 15.6140 128° Southeast 491 565 37,000  Level FlightAware ADS-B
Mon 07:28:16 AM 44.1270 15.7000 130° Southeast 492 566 37,000  Level FlightAware ADS-B
Mon 07:28:58 AM 44.0690 15.7990 129° Southeast 492 566 37,000  Level FlightAware ADS-B
Mon 07:29:33 AM 44.0160 15.8910 129° Southeast 491 565 37,000  Level FlightAware ADS-B
Mon 07:30:08 AM 43.9640 15.9800 129° Southeast 491 565 37,000 86 Level FlightAware ADS-B
Mon 07:30:43 AM 43.9170 16.0590 130° Southeast 492 566 37,100  Climbing FlightAware ADS-B
Mon 07:31:18 AM 43.8620 16.1500 130° Southeast 494 568 37,000 -86 Descending FlightAware ADS-B
Mon 07:31:53 AM 43.8140 16.2310 129° Southeast 494 568 37,000  Level FlightAware ADS-B
Mon 07:32:27 AM 43.7610 16.3200 129° Southeast 494 568 37,000  Level FlightAware ADS-B
Mon 07:33:03 AM 43.7110 16.4060 129° Southeast 493 567 37,000 85 Level FlightAware ADS-B
Mon 07:33:38 AM 43.6560 16.4970 130° Southeast 493 567 37,100 86 Climbing FlightAware ADS-B
Mon 07:34:13 AM 43.6050 16.5800 130° Southeast 492 566 37,100 -86 Level FlightAware ADS-B
Mon 07:34:48 AM 43.5540 16.6680 129° Southeast 491 565 37,000 -86 Descending FlightAware ADS-B
Mon 07:35:23 AM 43.5020 16.7500 131° Southeast 491 565 37,000  Level FlightAware ADS-B
Mon 07:35:58 AM 43.4520 16.8350 129° Southeast 497 572 37,000  Level FlightAware ADS-B
Mon 07:36:32 AM 43.4000 16.9210 130° Southeast 500 575 37,000  Level FlightAware ADS-B
Mon 07:37:08 AM 43.3480 17.0060 130° Southeast 502 578 37,000  Level FlightAware ADS-B
Mon 07:37:43 AM 43.2950 17.0920 130° Southeast 506 582 37,000  Level FlightAware ADS-B
Mon 07:38:18 AM 43.2430 17.1780 130° Southeast 505 581 37,000  Level FlightAware ADS-B
Mon 07:38:53 AM 43.1890 17.2620 131° Southeast 509 586 37,000  Level FlightAware ADS-B
Mon 07:39:27 AM 43.1350 17.3520 129° Southeast 512 589 37,000  Level FlightAware ADS-B
Mon 07:40:03 AM 43.0800 17.4400 131° Southeast 520 598 37,000  Level FlightAware ADS-B
Mon 07:40:38 AM 43.0270 17.5250 130° Southeast 522 601 37,000  Level FlightAware ADS-B
Mon 07:41:12 AM 42.9720 17.6160 130° Southeast 525 604 37,000  Level FlightAware ADS-B
Mon 07:41:49 AM 42.9130 17.7100 131° Southeast 527 606 37,000  Level FlightAware ADS-B
Mon 07:42:25 AM 42.8550 17.8010 131° Southeast 528 608 37,000  Level FlightAware ADS-B
Mon 07:43:01 AM 42.7990 17.8910 130° Southeast 527 606 37,000  Level FlightAware ADS-B
Mon 07:43:35 AM 42.7440 17.9770 131° Southeast 526 605 37,000  Level FlightAware ADS-B
Mon 07:44:11 AM 42.6870 18.0670 131° Southeast 524 603 37,000  Level FlightAware ADS-B
Mon 07:44:41 AM 42.6380 18.1440 131° Southeast 522 601 37,000  Level FlightAware ADS-B
Mon 07:45:21 AM 42.5760 18.2340 133° Southeast 520 598 37,000  Level FlightAware ADS-B
Mon 07:45:53 AM 42.5200 18.3110 135° Southeast 520 598 37,000  Level FlightAware ADS-B
Mon 07:46:29 AM 42.4570 18.3920 136° Southeast 519 597 37,000 75 Level FlightAware ADS-B
Mon 07:47:13 AM 42.3800 18.4900 137° Southeast 517 595 37,100 79 Climbing FlightAware ADS-B
Mon 07:47:45 AM 42.3250 18.5610 136° Southeast 515 593 37,100 -88 Level FlightAware ADS-B
Mon 07:48:21 AM 42.2620 18.6430 136° Southeast 512 589 37,000 -83 Descending FlightAware ADS-B
Mon 07:48:57 AM 42.2010 18.7230 136° Southeast 510 587 37,000  Level FlightAware ADS-B
Mon 07:49:33 AM 42.1400 18.8020 136° Southeast 510 587 37,000  Level FlightAware ADS-B
Mon 07:50:05 AM 42.0860 18.8720 136° Southeast 509 586 37,000  Level FlightAware ADS-B
Mon 07:50:41 AM 42.0240 18.9510 137° Southeast 509 586 37,000  Level FlightAware ADS-B
Mon 07:51:17 AM 41.9650 19.0250 137° Southeast 508 585 37,000  Level FlightAware ADS-B
Mon 07:51:49 AM 41.9090 19.0970 136° Southeast 509 586 37,000  Level FlightAware ADS-B
Mon 07:52:25 AM 41.8480 19.1750 136° Southeast 508 585 37,000  Level FlightAware ADS-B
Mon 07:53:09 AM 41.7720 19.2730 136° Southeast 511 588 37,000  Level FlightAware ADS-B
Mon 07:53:45 AM 41.7110 19.3530 136° Southeast 512 589 37,000  Level FlightAware ADS-B
Mon 07:54:17 AM 41.6560 19.4250 136° Southeast 515 593 37,000  Level FlightAware ADS-B
Mon 07:54:54 AM 41.5960 19.5030 136° Southeast 520 598 37,000  Level FlightAware ADS-B
Mon 07:55:29 AM 41.5320 19.5860 136° Southeast 523 602 37,000  Level FlightAware ADS-B
Mon 07:56:01 AM 41.4770 19.6580 136° Southeast 525 604 37,000  Level FlightAware ADS-B
Mon 07:56:37 AM 41.4150 19.7370 136° Southeast 526 605 37,000  Level FlightAware ADS-B
Mon 07:57:13 AM 41.3510 19.8180 136° Southeast 529 609 37,000  Level FlightAware ADS-B
Mon 07:57:49 AM 41.2890 19.8970 136° Southeast 531 611 37,000  Level FlightAware ADS-B
Mon 07:58:26 AM 41.2260 19.9790 136° Southeast 531 611 37,000  Level FlightAware ADS-B
Mon 07:58:56 AM 41.1680 20.0530 136° Southeast 531 611 37,000  Level FlightAware ADS-B
Mon 07:59:33 AM 41.1070 20.1300 136° Southeast 531 611 37,000  Level FlightAware ADS-B
Mon 08:00:07 AM 41.0460 20.2090 136° Southeast 531 611 37,000 83 Level FlightAware ADS-B
Mon 08:00:45 AM 40.9780 20.2940 137° Southeast 529 609 37,100  Climbing FlightAware ADS-B
Mon 08:01:19 AM 40.9180 20.3700 136° Southeast 526 605 37,000  Descending FlightAware ADS-B
Mon 08:01:54 AM 40.8570 20.4470 136° Southeast 524 603 37,100  Climbing FlightAware ADS-B
Mon 08:02:30 AM 40.7940 20.5260 136° Southeast 523 602 37,000 -88 Descending FlightAware ADS-B
Mon 08:03:02 AM 40.7350 20.5990 137° Southeast 522 601 37,000  Level FlightAware ADS-B
Mon 08:03:38 AM 40.6710 20.6790 137° Southeast 518 596 37,000 83 Level FlightAware ADS-B
Mon 08:04:14 AM 40.6090 20.7570 136° Southeast 517 595 37,100 83 Climbing FlightAware ADS-B
Mon 08:04:50 AM 40.5460 20.8350 137° Southeast 519 597 37,100 -86 Level FlightAware ADS-B
Mon 08:05:24 AM 40.4890 20.9050 137° Southeast 519 597 37,000 -86 Descending FlightAware ADS-B
Mon 08:06:00 AM 40.4230 20.9870 137° Southeast 521 600 37,000  Level FlightAware ADS-B
Mon 08:06:36 AM 40.3610 21.0630 137° Southeast 519 597 37,000  Level FlightAware ADS-B
Mon 08:07:08 AM 40.3030 21.1340 137° Southeast 519 597 37,000 88 Level FlightAware ADS-B
Mon 08:07:44 AM 40.2420 21.2090 137° Southeast 519 597 37,100  Climbing FlightAware ADS-B
Mon 08:08:20 AM 40.1780 21.2860 137° Southeast 519 597 37,000 -88 Descending FlightAware ADS-B
Mon 08:08:52 AM 40.1210 21.3570 136° Southeast 520 598 37,000  Level FlightAware ADS-B
Mon 08:09:28 AM 40.0610 21.4300 137° Southeast 521 600 37,000  Level FlightAware ADS-B
Mon 08:10:04 AM 39.9940 21.5110 137° Southeast 522 601 37,000  Level FlightAware ADS-B
Mon 08:10:40 AM 39.9290 21.5880 138° Southeast 520 598 37,000  Level FlightAware ADS-B
Mon 08:10:56 AM 39.9010 21.6180 141° Southeast 520 598 37,000  Level FlightAware ADS-B
Mon 08:11:44 AM 39.8130 21.7180 139° Southeast 521 600 37,000  Level FlightAware ADS-B
Mon 08:12:22 AM 39.7440 21.7940 140° Southeast 523 602 37,000  Level FlightAware ADS-B
Mon 08:12:54 AM 39.6860 21.8590 139° Southeast 523 602 37,000  Level FlightAware ADS-B
Mon 08:13:26 AM 39.6250 21.9270 139° Southeast 523 602 37,000  Level FlightAware ADS-B
Mon 08:14:04 AM 39.5560 22.0050 139° Southeast 524 603 37,000  Level FlightAware ADS-B
Mon 08:14:42 AM 39.4870 22.0810 140° Southeast 523 602 37,000  Level FlightAware ADS-B
Mon 08:15:14 AM 39.4270 22.1480 139° Southeast 523 602 37,000  Level FlightAware ADS-B
Mon 08:15:50 AM 39.3620 22.2220 139° Southeast 521 600 37,000  Level FlightAware ADS-B
Mon 08:16:26 AM 39.2940 22.2950 140° Southeast 522 601 37,000  Level FlightAware ADS-B
Mon 08:17:02 AM 39.2310 22.3640 140° Southeast 522 601 37,000  Level FlightAware ADS-B
Mon 08:17:34 AM 39.1710 22.4300 140° Southeast 522 601 37,000  Level FlightAware ADS-B
Mon 08:18:10 AM 39.1070 22.5010 139° Southeast 514 592 37,000  Level FlightAware ADS-B
Mon 08:18:45 AM 39.0510 22.5630 139° Southeast 511 588 37,000 86 Level FlightAware ADS-B
Mon 08:19:20 AM 38.9800 22.6400 140° Southeast 509 586 37,100 85 Climbing FlightAware ADS-B
Mon 08:19:56 AM 38.9130 22.7130 140° Southeast 513 590 37,100 -75 Level FlightAware ADS-B
Mon 08:20:40 AM 38.8380 22.7940 140° Southeast 511 588 37,000 -72 Descending FlightAware ADS-B
Mon 08:21:19 AM 38.7630 22.8750 140° Southeast 510 587 37,000  Level FlightAware ADS-B
Mon 08:21:54 AM 38.7020 22.9400 140° Southeast 510 587 37,000  Level FlightAware ADS-B
Mon 08:22:30 AM 38.6340 23.0140 140° Southeast 511 588 37,000 88 Level FlightAware ADS-B
Mon 08:23:02 AM 38.5760 23.0760 140° Southeast 512 589 37,100  Climbing FlightAware ADS-B
Mon 08:23:38 AM 38.5100 23.1460 140° Southeast 513 590 37,000 -81 Descending FlightAware ADS-B
Mon 08:24:16 AM 38.4420 23.2200 140° Southeast 512 589 37,000  Level FlightAware ADS-B
Mon 08:24:49 AM 38.3810 23.2840 141° Southeast 511 588 37,000  Level FlightAware ADS-B
Mon 08:25:24 AM 38.3160 23.3540 140° Southeast 512 589 37,000  Level FlightAware ADS-B
Mon 08:25:56 AM 38.2590 23.4140 140° Southeast 512 589 37,000  Level FlightAware ADS-B
Mon 08:26:33 AM 38.1910 23.4870 140° Southeast 510 587 37,000  Level FlightAware ADS-B
Mon 08:27:09 AM 38.1250 23.5560 141° Southeast 511 588 37,000 92 Level FlightAware ADS-B
Mon 08:27:38 AM 38.0740 23.6090 141° Southeast 511 588 37,100  Climbing FlightAware ADS-B
Mon 08:28:20 AM 37.9980 23.6900 140° Southeast 509 586 37,000  Descending FlightAware ADS-B
Mon 08:28:56 AM 37.9310 23.7600 141° Southeast 507 583 37,100 90 Climbing FlightAware ADS-B
Mon 08:29:27 AM 37.8780 23.8210 138° Southeast 519 597 37,100 -88 Level FlightAware ADS-B
Mon 08:30:04 AM 37.8180 23.9090 131° Southeast 527 606 37,000 -88 Descending FlightAware ADS-B
Mon 08:30:35 AM 37.7700 23.9800 131° Southeast 526 605 37,000 83 Level FlightAware ADS-B
Mon 08:31:16 AM 37.7090 24.0800 128° Southeast 535 616 37,100  Climbing FlightAware ADS-B
Mon 08:31:48 AM 37.6650 24.1670 123° Southeast 535 616 37,000  Descending FlightAware ADS-B
Mon 08:32:24 AM 37.6190 24.2590 122° Southeast 534 615 37,100  Climbing FlightAware ADS-B
Mon 08:33:00 AM 37.5710 24.3530 123° Southeast 533 613 37,000 -88 Descending FlightAware ADS-B
Mon 08:33:32 AM 37.5300 24.4390 121° Southeast 535 616 37,000  Level FlightAware ADS-B
Mon 08:34:07 AM 37.4840 24.5340 121° Southeast 534 615 37,000  Level FlightAware ADS-B
Mon 08:34:44 AM 37.4370 24.6290 122° Southeast 533 613 37,000  Level FlightAware ADS-B
Mon 08:35:20 AM 37.3910 24.7240 121° Southeast 533 613 37,000  Level FlightAware ADS-B
Mon 08:35:52 AM 37.3500 24.8060 122° Southeast 533 613 37,000  Level FlightAware ADS-B
Mon 08:36:29 AM 37.3020 24.9030 122° Southeast 532 612 37,000  Level FlightAware ADS-B
Mon 08:37:05 AM 37.2540 25.0000 122° Southeast 530 610 37,000  Level FlightAware ADS-B
Mon 08:37:40 AM 37.2070 25.0930 122° Southeast 529 609 37,000  Level FlightAware ADS-B
Mon 08:38:13 AM 37.1660 25.1760 122° Southeast 527 606 37,000 86 Level FlightAware ADS-B
Mon 08:38:50 AM 37.1170 25.2750 122° Southeast 526 605 37,100  Climbing FlightAware ADS-B
Mon 08:39:22 AM 37.0760 25.3550 123° Southeast 526 605 37,000 -88 Descending FlightAware ADS-B
Mon 08:39:58 AM 37.0280 25.4500 122° Southeast 525 604 37,000  Level FlightAware ADS-B
Mon 08:40:30 AM 36.9880 25.5300 122° Southeast 523 602 37,000  Level FlightAware ADS-B
Mon 08:41:08 AM 36.9390 25.6290 122° Southeast 524 603 37,000  Level FlightAware ADS-B
Mon 08:41:43 AM 36.8940 25.7170 123° Southeast 523 602 37,000  Level FlightAware ADS-B
Mon 08:42:18 AM 36.8480 25.8080 122° Southeast 522 601 37,000  Level FlightAware ADS-B
Mon 08:42:54 AM 36.8020 25.8970 123° Southeast 523 602 37,000  Level FlightAware ADS-B
Mon 08:43:30 AM 36.7550 25.9890 123° Southeast 523 602 37,000  Level FlightAware ADS-B
Mon 08:44:02 AM 36.7130 26.0730 122° Southeast 523 602 37,000  Level FlightAware ADS-B
Mon 08:44:38 AM 36.6670 26.1620 123° Southeast 523 602 37,000  Level FlightAware ADS-B
Mon 08:45:14 AM 36.6190 26.2560 122° Southeast 522 601 37,000  Level FlightAware ADS-B
Mon 08:45:50 AM 36.5740 26.3440 122° Southeast 523 602 37,000  Level FlightAware ADS-B
Mon 08:46:22 AM 36.5310 26.4250 123° Southeast 523 602 37,000  Level FlightAware ADS-B
Mon 08:46:59 AM 36.4830 26.5190 122° Southeast 523 602 37,000  Level FlightAware ADS-B
Mon 08:47:34 AM 36.4360 26.6070 124° Southeast 525 604 37,000  Level FlightAware ADS-B
Mon 08:48:10 AM 36.3880 26.7010 122° Southeast 525 604 37,000  Level FlightAware ADS-B
Mon 08:48:42 AM 36.3470 26.7800 123° Southeast 526 605 37,000  Level FlightAware ADS-B
Mon 08:49:18 AM 36.2990 26.8730 123° Southeast 526 605 37,000  Level FlightAware ADS-B
Mon 08:49:48 AM 36.2590 26.9490 123° Southeast 527 606 37,000  Level FlightAware ADS-B
Mon 08:50:37 AM 36.2000 27.0590 124° Southeast 527 606 37,000  Level FlightAware ADS-B
Mon 08:51:08 AM 36.1560 27.1440 123° Southeast 527 606 37,000  Level FlightAware ADS-B
Mon 08:51:48 AM 36.1060 27.2370 124° Southeast 527 606 37,000  Level FlightAware ADS-B
Mon 08:52:28 AM 36.0500 27.3430 123° Southeast 526 605 37,000  Level FlightAware ADS-B
Mon 08:53:02 AM 36.0040 27.4310 123° Southeast 526 605 37,000  Level FlightAware ADS-B
Mon 08:53:43 AM 35.9490 27.5340 123° Southeast 526 605 37,000  Level FlightAware ADS-B
Mon 08:54:23 AM 35.9010 27.6220 124° Southeast 525 604 37,000 83 Level FlightAware ADS-B
Mon 08:54:55 AM 35.8580 27.7040 123° Southeast 525 604 37,100  Climbing FlightAware ADS-B
Mon 08:55:35 AM 35.8100 27.7950 123° Southeast 524 603 37,000 -79 Descending FlightAware ADS-B
Mon 08:56:11 AM 35.7700 27.8720 123° Southeast 524 603 37,000  Level FlightAware ADS-B
Mon 08:56:49 AM 35.7270 27.9530 123° Southeast 524 603 37,000  Level FlightAware ADS-B
Mon 08:57:25 AM 35.6870 28.0290 123° Southeast 524 603 37,000  Level FlightAware ADS-B
Mon 08:57:55 AM 35.6100 28.1620 125° Southeast 521 600 37,000  Level FlightAware ADS-B
Mon 08:58:35 AM 35.5540 28.2650 124° Southeast 520 598 37,000  Level FlightAware ADS-B
Mon 08:59:06 AM 35.5140 28.3380 124° Southeast 519 597 37,000  Level FlightAware ADS-B
Mon 08:59:42 AM 35.4650 28.4260 124° Southeast 518 596 37,000  Level FlightAware ADS-B
Mon 09:00:14 AM 35.4230 28.5040 123° Southeast 518 596 37,000  Level FlightAware ADS-B
Mon 09:00:51 AM 35.3780 28.5850 124° Southeast 518 596 37,000  Level FlightAware ADS-B
Mon 09:01:28 AM 35.3230 28.6850 124° Southeast 518 596 37,000 82 Level FlightAware ADS-B
Mon 09:02:04 AM 35.2740 28.7740 124° Southeast 519 597 37,100  Climbing FlightAware ADS-B
Mon 09:02:36 AM 35.2320 28.8500 124° Southeast 518 596 37,000 -90 Descending FlightAware ADS-B
Mon 09:03:11 AM 35.1910 28.9260 123° Southeast 518 596 37,000  Level FlightAware ADS-B
Mon 09:03:48 AM 35.1500 29.0030 123° Southeast 518 596 37,000  Level FlightAware ADS-B
Mon 09:04:24 AM 35.1100 29.0780 123° Southeast 518 596 37,000  Level FlightAware ADS-B
Mon 09:05:04 AM 35.0390 29.1960 126° Southeast 513 590 37,000  Level FlightAware ADS-B
Mon 09:05:41 AM 34.9950 29.2750 124° Southeast 513 590 37,000  Level FlightAware ADS-B
Mon 09:06:17 AM 34.9540 29.3490 124° Southeast 513 590 37,000  Level FlightAware ADS-B
Mon 09:06:54 AM 34.8880 29.4650 125° Southeast 511 588 37,000  Level FlightAware ADS-B
Mon 09:07:39 AM 34.8260 29.5740 125° Southeast 510 587 37,000  Level FlightAware ADS-B
Mon 09:08:16 AM 34.7780 29.6590 124° Southeast 511 588 37,000  Level FlightAware ADS-B
Mon 09:08:46 AM 34.7370 29.7300 125° Southeast 510 587 37,000  Level FlightAware ADS-B
Mon 09:09:22 AM 34.6930 29.8110 123° Southeast 508 585 37,000  Level FlightAware ADS-B
Mon 09:09:56 AM 34.6520 29.8890 123° Southeast 509 586 37,000  Level FlightAware ADS-B
Mon 09:10:35 AM 34.6130 29.9710 120° Southeast 509 586 37,000  Level FlightAware ADS-B
Mon 09:11:22 AM 34.5660 30.0700 120° Southeast 509 586 37,000  Level FlightAware ADS-B
Mon 09:12:11 AM 34.4890 30.2280 121° Southeast 516 594 37,000  Level FlightAware ADS-B
Mon 09:12:47 AM 34.4430 30.3260 120° Southeast 515 593 37,000  Level FlightAware ADS-B
Mon 09:13:21 AM 34.4010 30.4100 121° Southeast 514 592 37,000  Level FlightAware ADS-B
Mon 09:13:56 AM 34.3580 30.5000 120° Southeast 514 592 37,000  Level FlightAware ADS-B
Mon 09:14:27 AM 34.3220 30.5740 120° Southeast 513 590 37,000 91 Level FlightAware ADS-B
Mon 09:15:02 AM 34.2820 30.6550 121° Southeast 512 589 37,100  Climbing FlightAware ADS-B
Mon 09:15:47 AM 34.2260 30.7710 120° Southeast 510 587 37,000 -80 Descending FlightAware ADS-B
Mon 09:16:17 AM 34.1940 30.8350 121° Southeast 509 586 37,000  Level FlightAware ADS-B
Mon 09:16:57 AM 34.1410 30.9420 121° Southeast 509 586 37,000  Level FlightAware ADS-B
Mon 09:17:32 AM 34.1000 31.0280 120° Southeast 509 586 37,000  Level FlightAware ADS-B
Mon 09:18:08 AM 34.0570 31.1150 121° Southeast 508 585 37,000  Level FlightAware ADS-B
Mon 09:18:43 AM 34.0140 31.2000 121° Southeast 507 583 37,000  Level FlightAware ADS-B
Mon 09:19:18 AM 33.9720 31.2850 121° Southeast 507 583 37,000 86 Level FlightAware ADS-B
Mon 09:19:53 AM 33.9290 31.3700 121° Southeast 506 582 37,100  Climbing FlightAware ADS-B
Mon 09:20:24 AM 33.8920 31.4450 121° Southeast 506 582 37,000 -85 Descending FlightAware ADS-B
Mon 09:21:04 AM 33.8440 31.5410 121° Southeast 505 581 37,000  Level FlightAware ADS-B
Mon 09:21:35 AM 33.8070 31.6160 121° Southeast 505 581 37,000  Level FlightAware ADS-B
Mon 09:22:11 AM 33.7660 31.6980 121° Southeast 506 582 37,000  Level FlightAware ADS-B
Mon 09:22:46 AM 33.7210 31.7870 121° Southeast 506 582 37,000  Level FlightAware ADS-B
Mon 09:23:26 AM 33.6720 31.8830 122° Southeast 506 582 37,000  Level FlightAware ADS-B
Mon 09:24:02 AM 33.6290 31.9690 121° Southeast 506 582 37,000 91 Level FlightAware ADS-B
Mon 09:24:32 AM 33.5920 32.0410 122° Southeast 506 582 37,100  Climbing FlightAware ADS-B
Mon 09:25:07 AM 33.5500 32.1250 121° Southeast 501 577 37,000 -80 Descending FlightAware ADS-B
Mon 09:25:47 AM 33.5010 32.2210 121° Southeast 502 578 37,000  Level FlightAware ADS-B
Mon 09:26:17 AM 33.4640 32.2930 122° Southeast 503 579 37,000  Level FlightAware ADS-B
Mon 09:26:52 AM 33.4250 32.3690 122° Southeast 502 578 37,000  Level FlightAware ADS-B
Mon 09:27:28 AM 33.3780 32.4600 122° Southeast 502 578 37,000  Level FlightAware ADS-B
Mon 09:28:03 AM 33.3330 32.5480 121° Southeast 506 582 37,000 -592 Level FlightAware ADS-B
Mon 09:28:39 AM 33.2920 32.6270 122° Southeast 508 585 36,300 -1,676 Descending FlightAware ADS-B
Mon 09:29:11 AM 33.2580 32.6940 121° Southeast 505 581 35,100 -2,475 Descending FlightAware ADS-B
Mon 09:29:59 AM 33.1950 32.8140 122° Southeast 499 574 33,000 -2,530 Descending FlightAware ADS-B
Mon 09:30:34 AM 33.1540 32.8930 122° Southeast 492 566 31,600 -2,313 Descending FlightAware ADS-B
Mon 09:31:22 AM 33.0940 33.0090 122° Southeast 479 551 29,800 -2,071 Descending FlightAware ADS-B
Mon 09:31:58 AM 33.0570 33.0800 122° Southeast 469 540 28,700 -2,000 Descending FlightAware ADS-B
Mon 09:32:28 AM 33.0240 33.1450 121° Southeast 458 527 27,600 -957 Descending FlightAware ADS-B
Mon 09:33:07 AM 32.9860 33.2160 123° Southeast 458 527 27,600 -1,348 Level FlightAware ADS-B
Mon 09:33:57 AM 32.9280 33.3260 122° Southeast 452 520 25,600 -2,784 Descending FlightAware ADS-B
Mon 09:34:44 AM 32.8740 33.4280 122° Southeast 412 474 23,100 -2,561 Descending FlightAware ADS-B
Mon 09:35:19 AM 32.8400 33.4940 122° Southeast 404 465 22,100 -1,737 Descending FlightAware ADS-B
Mon 09:36:00 AM 32.7980 33.5730 122° Southeast 389 448 20,900 -1,680 Descending FlightAware ADS-B
Mon 09:36:34 AM 32.7690 33.6290 122° Southeast 380 437 20,000 -1,662 Descending FlightAware ADS-B
Mon 09:37:05 AM 32.7370 33.6900 122° Southeast 372 428 19,100 -1,690 Descending FlightAware ADS-B
Mon 09:37:45 AM 32.7020 33.7560 122° Southeast 360 414 18,000 -1,500 Descending FlightAware ADS-B
Mon 09:38:21 AM 32.6700 33.8130 124° Southeast 350 403 17,200 -1,500 Descending FlightAware ADS-B
Mon 09:38:57 AM 32.6380 33.8750 121° Southeast 342 394 16,200 -1,612 Descending FlightAware ADS-B
Mon 09:39:28 AM 32.6120 33.9210 124° Southeast 336 387 15,400 -1,391 Descending FlightAware ADS-B
Mon 09:40:06 AM 32.5760 33.9780 127° Southeast 326 375 14,600 -1,268 Descending FlightAware ADS-B
Mon 09:40:39 AM 32.5460 34.0210 130° Southeast 317 365 13,900 -1,268 Descending FlightAware ADS-B
Mon 09:41:17 AM 32.5090 34.0710 131° Southeast 328 377 13,100 -1,286 Descending FlightAware ADS-B
Mon 09:41:49 AM 32.4770 34.1140 131° Southeast 329 379 12,400 -1,273 Descending FlightAware ADS-B
Mon 09:42:23 AM 32.4430 34.1630 129° Southeast 320 368 11,700 -1,167 Descending FlightAware ADS-B
Mon 09:43:01 AM 32.4090 34.2100 131° Southeast 305 351 11,000 -1,114 Descending FlightAware ADS-B
Mon 09:43:33 AM 32.3800 34.2520 129° Southeast 297 342 10,400 -1,143 Descending FlightAware ADS-B
Mon 09:44:04 AM 32.3560 34.2850 131° Southeast 292 336 9,800 -1,176 Descending FlightAware ADS-B
Mon 09:44:24 AM 32.3370 34.3110 131° Southeast 286 329 9,400 -1,224 Descending FlightAware ADS-B
Mon 09:44:53 AM 32.3110 34.3480 130° Southeast 278 320 8,800 -1,116 Descending FlightAware ADS-B
Mon 09:45:07 AM 32.2990 34.3640 132° Southeast 275 316 8,600 -1,024 Descending FlightAware ADS-B
Mon 09:45:34 AM 32.2790 34.3920 130° Southeast 268 308 8,100 -1,149 Descending FlightAware ADS-B
Mon 09:45:54 AM 32.2610 34.4170 130° Southeast 269 310 7,700 -1,029 Descending FlightAware ADS-B
Mon 09:46:09 AM 32.2500 34.4330 129° Southeast 277 319 7,500 -857 Descending FlightAware ADS-B
Mon 09:46:29 AM 32.2340 34.4550 131° Southeast 277 319 7,200 -1,050 Descending FlightAware ADS-B
Mon 09:46:49 AM 32.2190 34.4810 124° Southeast 276 318 6,800 -1,050 Descending FlightAware ADS-B
Mon 09:47:09 AM 32.2060 34.5070 121° Southeast 271 312 6,500 -1,029 Descending FlightAware ADS-B
Mon 09:47:24 AM 32.1960 34.5260 122° Southeast 276 318 6,200 -400 Descending FlightAware ADS-B
Mon 09:47:54 AM 32.1810 34.5560 121° Southeast 276 318 6,200 -960 Level FlightAware ADS-B
Mon 09:48:14 AM 32.1630 34.5910 121° Southeast 276 318 5,400 -1,650 Descending FlightAware ADS-B
Mon 09:48:34 AM 32.1490 34.6160 123° Southeast 274 315 5,100 -450 Descending FlightAware ADS-B
Mon 09:48:54 AM 32.1360 34.6400 123° Southeast 273 314 5,100  Level FlightAware ADS-B
Mon 09:49:14 AM 32.1230 34.6640 123° Southeast 250 288 5,100 150 Level FlightAware ADS-B
Mon 09:49:34 AM 32.1110 34.6860 123° Southeast 234 269 5,200 150 Climbing FlightAware ADS-B
Mon 09:49:54 AM 32.1020 34.7020 124° Southeast 216 249 5,200 -118 Level FlightAware ADS-B
Mon 09:50:25 AM 32.0830 34.7360 123° Southeast 209 241 5,100 -107 Descending FlightAware ADS-B
Mon 09:50:50 AM 32.0710 34.7570 124° Southeast 208 239 5,100  Level FlightAware ADS-B
Mon 09:51:08 AM 32.0600 34.7760 124° Southeast 207 238 5,100 -143 Level FlightAware ADS-B
Mon 09:51:32 AM 32.0450 34.7930 136° Southeast 205 236 5,000 -429 Descending FlightAware ADS-B
Mon 09:51:50 AM 32.0300 34.8090 138° Southeast 207 238 4,800 -333 Descending FlightAware ADS-B
Mon 09:52:08 AM 32.0200 34.8210 135° Southeast 208 239 4,800 -409 Level FlightAware ADS-B
Mon 09:52:34 AM 32.0000 34.8430 137° Southeast 199 229 4,500 -1,017 Descending FlightAware ADS-B
Mon 09:53:07 AM 31.9810 34.8660 134° Southeast 184 212 3,800 -1,412 Descending FlightAware ADS-B
Mon 09:53:25 AM 31.9720 34.8810 125° Southeast 180 207 3,300 -1,019 Descending FlightAware ADS-B
Mon 09:54:00 AM 31.9760 34.9100 81° East 174 200 2,900 -844 Descending FlightAware ADS-B
Mon 09:54:29 AM 31.9800 34.9270 74° East 161 185 2,400 -900 Descending FlightAware ADS-B
Mon 09:55:00 AM 31.9930 34.9620 66° East 167 192 2,000 -833 Descending FlightAware ADS-B
Mon 09:55:05 AM 31.9970 34.9640 23° Northeast 165 190 1,900 -1,091 Descending FlightAware ADS-B
Mon 09:55:11 AM 32.0030 34.9650 North 158 182 1,800 -828 Descending FlightAware ADS-B
Mon 09:55:34 AM 32.0160 34.9610 345° North 152 175 1,500 -615 Descending FlightAware ADS-B
Mon 09:55:50 AM 32.0250 34.9530 323° Northwest 154 177 1,400 -545 Descending FlightAware ADS-B
Mon 09:55:56 AM 32.0260 34.9470 281° West 155 178 1,300 -1,000 Descending FlightAware ADS-B
Mon 09:56:26 AM 32.0220 34.9220 259° West 148 170 800 -875 Descending FlightAware ADS-B
Mon 09:56:44 AM 32.0200 34.9080 260° West 149 171 600 -714 Descending FlightAware ADS-B
Mon 09:57:08 AM 32.0170 34.8880 260° West 152 175 300 -750 Descending FlightAware ADS-B
Mon 09:57:20 AM 32.0160 34.8820 259° West 140 161 -1,500 Descending FlightAware ADS-B

Login

Don't have an account? Register now (free) for customized features, flight alerts, and more!